<?xml version="1.0" encoding="UTF-8" standalone="no" ?>
<gpx xmlns="http://www.topografix.com/GPX/1/1" xmlns:xsi="http://www.w3.org/2001/XMLSchema-instance" xsi:schemaLocation="http://www.topografix.com/GPX/1/1 http://www.topografix.com/GPX/1/1/gpx.xsd" version="1.1" creator="VisuGPX - https://www.visugpx.com">
  <metadata>
    <name>parcours MCJ1</name>
  </metadata>
  <trk>
    <name><![CDATA[Saint-Loup sortie scolaire repérage]]></name>
    <extensions>
      <line xmlns="http://www.topografix.com/GPX/gpx_style/0/2">
        <color>ff0000</color>
        <width>4</width>
      </line>
    </extensions>
    <trkseg>
      <trkpt lat="45.89352" lon="4.4909">
        <ele>473</ele>
        <time>2022-05-29T13:27:46.000Z</time>
      </trkpt>
      <trkpt lat="45.89348" lon="4.49089">
        <ele>473</ele>
        <time>2022-05-29T13:27:46.006Z</time>
      </trkpt>
      <trkpt lat="45.8935" lon="4.49085">
        <ele>478</ele>
        <time>2022-05-29T13:27:46.018Z</time>
      </trkpt>
      <trkpt lat="45.89364" lon="4.49078">
        <ele>478</ele>
        <time>2022-05-29T13:27:46.053Z</time>
      </trkpt>
      <trkpt lat="45.89381" lon="4.49064">
        <ele>480.79998779297</ele>
        <time>2022-05-29T13:27:46.121Z</time>
      </trkpt>
      <trkpt lat="45.89386" lon="4.49037">
        <ele>483</ele>
        <time>2022-05-29T13:27:46.221Z</time>
      </trkpt>
      <trkpt lat="45.89387" lon="4.49038">
        <ele>483</ele>
        <time>2022-05-29T13:27:46.323Z</time>
      </trkpt>
      <trkpt lat="45.8938" lon="4.49023">
        <ele>483</ele>
        <time>2022-05-29T13:27:46.445Z</time>
      </trkpt>
      <trkpt lat="45.89379" lon="4.49015">
        <ele>483</ele>
        <time>2022-05-29T13:27:46.577Z</time>
      </trkpt>
      <trkpt lat="45.8939" lon="4.49006">
        <ele>484.79998779297</ele>
        <time>2022-05-29T13:27:46.730Z</time>
      </trkpt>
      <trkpt lat="45.89398" lon="4.49003">
        <ele>484.79998779297</ele>
        <time>2022-05-29T13:27:46.896Z</time>
      </trkpt>
      <trkpt lat="45.89411" lon="4.48996">
        <ele>484.79998779297</ele>
        <time>2022-05-29T13:27:47.085Z</time>
      </trkpt>
      <trkpt lat="45.89415" lon="4.49">
        <ele>484.79998779297</ele>
        <time>2022-05-29T13:27:47.283Z</time>
      </trkpt>
      <trkpt lat="45.89425" lon="4.49002">
        <ele>488.60000610352</ele>
        <time>2022-05-29T13:27:47.497Z</time>
      </trkpt>
      <trkpt lat="45.8943" lon="4.4901">
        <ele>489.60000610352</ele>
        <time>2022-05-29T13:27:47.723Z</time>
      </trkpt>
      <trkpt lat="45.89435" lon="4.49009">
        <ele>490.39999389648</ele>
        <time>2022-05-29T13:27:47.956Z</time>
      </trkpt>
      <trkpt lat="45.89441" lon="4.49012">
        <ele>491.20001220703</ele>
        <time>2022-05-29T13:27:48.200Z</time>
      </trkpt>
      <trkpt lat="45.89444" lon="4.49011">
        <ele>491.39999389648</ele>
        <time>2022-05-29T13:27:48.450Z</time>
      </trkpt>
      <trkpt lat="45.89456" lon="4.48986">
        <ele>493.39999389648</ele>
        <time>2022-05-29T13:27:48.735Z</time>
      </trkpt>
      <trkpt lat="45.89456" lon="4.4898">
        <ele>493.39999389648</ele>
        <time>2022-05-29T13:27:49.026Z</time>
      </trkpt>
      <trkpt lat="45.8946" lon="4.48975">
        <ele>494.39999389648</ele>
        <time>2022-05-29T13:27:49.325Z</time>
      </trkpt>
      <trkpt lat="45.89463" lon="4.48955">
        <ele>497</ele>
        <time>2022-05-29T13:27:49.648Z</time>
      </trkpt>
      <trkpt lat="45.89474" lon="4.48942">
        <ele>497</ele>
        <time>2022-05-29T13:27:49.994Z</time>
      </trkpt>
      <trkpt lat="45.8948" lon="4.48938">
        <ele>498.20001220703</ele>
        <time>2022-05-29T13:27:50.351Z</time>
      </trkpt>
      <trkpt lat="45.89485" lon="4.48929">
        <ele>499.20001220703</ele>
        <time>2022-05-29T13:27:50.720Z</time>
      </trkpt>
      <trkpt lat="45.89486" lon="4.48916">
        <ele>499.20001220703</ele>
        <time>2022-05-29T13:27:51.105Z</time>
      </trkpt>
      <trkpt lat="45.8949" lon="4.4891">
        <ele>502</ele>
        <time>2022-05-29T13:27:51.500Z</time>
      </trkpt>
      <trkpt lat="45.8949" lon="4.48905">
        <ele>503.39999389648</ele>
        <time>2022-05-29T13:27:51.899Z</time>
      </trkpt>
      <trkpt lat="45.89497" lon="4.48892">
        <ele>504</ele>
        <time>2022-05-29T13:27:52.317Z</time>
      </trkpt>
      <trkpt lat="45.895" lon="4.48878">
        <ele>506</ele>
        <time>2022-05-29T13:27:52.752Z</time>
      </trkpt>
      <trkpt lat="45.89509" lon="4.48853">
        <ele>506</ele>
        <time>2022-05-29T13:27:53.219Z</time>
      </trkpt>
      <trkpt lat="45.89513" lon="4.48839">
        <ele>506</ele>
        <time>2022-05-29T13:27:53.703Z</time>
      </trkpt>
      <trkpt lat="45.89516" lon="4.4881">
        <ele>513</ele>
        <time>2022-05-29T13:27:54.221Z</time>
      </trkpt>
      <trkpt lat="45.89518" lon="4.48807">
        <ele>513</ele>
        <time>2022-05-29T13:27:54.743Z</time>
      </trkpt>
      <trkpt lat="45.89519" lon="4.48785">
        <ele>513</ele>
        <time>2022-05-29T13:27:55.290Z</time>
      </trkpt>
      <trkpt lat="45.89517" lon="4.48777">
        <ele>515.79998779297</ele>
        <time>2022-05-29T13:27:55.847Z</time>
      </trkpt>
      <trkpt lat="45.89518" lon="4.48773">
        <ele>516.40002441406</ele>
        <time>2022-05-29T13:27:56.409Z</time>
      </trkpt>
      <trkpt lat="45.89505" lon="4.48728">
        <ele>519.40002441406</ele>
        <time>2022-05-29T13:27:57.026Z</time>
      </trkpt>
      <trkpt lat="45.89502" lon="4.48711">
        <ele>519.40002441406</ele>
        <time>2022-05-29T13:27:57.663Z</time>
      </trkpt>
      <trkpt lat="45.89502" lon="4.48702">
        <ele>522</ele>
        <time>2022-05-29T13:27:58.310Z</time>
      </trkpt>
      <trkpt lat="45.89499" lon="4.48697">
        <ele>522</ele>
        <time>2022-05-29T13:27:58.965Z</time>
      </trkpt>
      <trkpt lat="45.89503" lon="4.48685">
        <ele>522</ele>
        <time>2022-05-29T13:27:59.634Z</time>
      </trkpt>
      <trkpt lat="45.89513" lon="4.48679">
        <ele>523.59997558594</ele>
        <time>2022-05-29T13:28:00.322Z</time>
      </trkpt>
      <trkpt lat="45.89524" lon="4.48661">
        <ele>523.59997558594</ele>
        <time>2022-05-29T13:28:01.037Z</time>
      </trkpt>
      <trkpt lat="45.89536" lon="4.48649">
        <ele>523.59997558594</ele>
        <time>2022-05-29T13:28:01.775Z</time>
      </trkpt>
      <trkpt lat="45.89545" lon="4.48631">
        <ele>530.40002441406</ele>
        <time>2022-05-29T13:28:02.538Z</time>
      </trkpt>
      <trkpt lat="45.89548" lon="4.48618">
        <ele>531.79998779297</ele>
        <time>2022-05-29T13:28:03.316Z</time>
      </trkpt>
      <trkpt lat="45.89562" lon="4.48576">
        <ele>534.79998779297</ele>
        <time>2022-05-29T13:28:04.148Z</time>
      </trkpt>
      <trkpt lat="45.89567" lon="4.48551">
        <ele>534.79998779297</ele>
        <time>2022-05-29T13:28:05.009Z</time>
      </trkpt>
      <trkpt lat="45.8957" lon="4.48544">
        <ele>534.79998779297</ele>
        <time>2022-05-29T13:28:05.881Z</time>
      </trkpt>
      <trkpt lat="45.89571" lon="4.48536">
        <ele>534.79998779297</ele>
        <time>2022-05-29T13:28:06.761Z</time>
      </trkpt>
      <trkpt lat="45.89575" lon="4.48521">
        <ele>534.79998779297</ele>
        <time>2022-05-29T13:28:07.660Z</time>
      </trkpt>
      <trkpt lat="45.89574" lon="4.48493">
        <ele>534.79998779297</ele>
        <time>2022-05-29T13:28:08.591Z</time>
      </trkpt>
      <trkpt lat="45.89569" lon="4.48467">
        <ele>530.59997558594</ele>
        <time>2022-05-29T13:28:09.553Z</time>
      </trkpt>
      <trkpt lat="45.89564" lon="4.48451">
        <ele>530.59997558594</ele>
        <time>2022-05-29T13:28:10.534Z</time>
      </trkpt>
      <trkpt lat="45.89562" lon="4.48439">
        <ele>530</ele>
        <time>2022-05-29T13:28:11.530Z</time>
      </trkpt>
      <trkpt lat="45.89563" lon="4.48435">
        <ele>529.79998779297</ele>
        <time>2022-05-29T13:28:12.530Z</time>
      </trkpt>
      <trkpt lat="45.89559" lon="4.4841">
        <ele>529.79998779297</ele>
        <time>2022-05-29T13:28:13.559Z</time>
      </trkpt>
      <trkpt lat="45.8956" lon="4.48407">
        <ele>528.59997558594</ele>
        <time>2022-05-29T13:28:14.592Z</time>
      </trkpt>
      <trkpt lat="45.89561" lon="4.48408">
        <ele>528.79998779297</ele>
        <time>2022-05-29T13:28:15.627Z</time>
      </trkpt>
      <trkpt lat="45.89559" lon="4.48403">
        <ele>529</ele>
        <time>2022-05-29T13:28:16.668Z</time>
      </trkpt>
      <trkpt lat="45.8956" lon="4.48397">
        <ele>529</ele>
        <time>2022-05-29T13:28:17.716Z</time>
      </trkpt>
      <trkpt lat="45.89555" lon="4.48369">
        <ele>527.40002441406</ele>
        <time>2022-05-29T13:28:18.798Z</time>
      </trkpt>
      <trkpt lat="45.89557" lon="4.48366">
        <ele>527.40002441406</ele>
        <time>2022-05-29T13:28:19.884Z</time>
      </trkpt>
      <trkpt lat="45.89556" lon="4.48367">
        <ele>527</ele>
        <time>2022-05-29T13:28:20.973Z</time>
      </trkpt>
      <trkpt lat="45.89555" lon="4.48343">
        <ele>527</ele>
        <time>2022-05-29T13:28:22.089Z</time>
      </trkpt>
      <trkpt lat="45.89557" lon="4.48332">
        <ele>527</ele>
        <time>2022-05-29T13:28:23.219Z</time>
      </trkpt>
      <trkpt lat="45.89561" lon="4.4833">
        <ele>526.59997558594</ele>
        <time>2022-05-29T13:28:24.354Z</time>
      </trkpt>
      <trkpt lat="45.89559" lon="4.48334">
        <ele>526.59997558594</ele>
        <time>2022-05-29T13:28:25.495Z</time>
      </trkpt>
      <trkpt lat="45.89557" lon="4.48333">
        <ele>526.59997558594</ele>
        <time>2022-05-29T13:28:26.639Z</time>
      </trkpt>
      <trkpt lat="45.89559" lon="4.4832">
        <ele>525.40002441406</ele>
        <time>2022-05-29T13:28:27.797Z</time>
      </trkpt>
      <trkpt lat="45.89558" lon="4.48318">
        <ele>525.40002441406</ele>
        <time>2022-05-29T13:28:28.959Z</time>
      </trkpt>
      <trkpt lat="45.89562" lon="4.48306">
        <ele>527.40002441406</ele>
        <time>2022-05-29T13:28:30.136Z</time>
      </trkpt>
      <trkpt lat="45.89573" lon="4.48301">
        <ele>527.59997558594</ele>
        <time>2022-05-29T13:28:31.332Z</time>
      </trkpt>
      <trkpt lat="45.89574" lon="4.48298">
        <ele>527.79998779297</ele>
        <time>2022-05-29T13:28:32.532Z</time>
      </trkpt>
      <trkpt lat="45.89581" lon="4.4829">
        <ele>528</ele>
        <time>2022-05-29T13:28:33.746Z</time>
      </trkpt>
      <trkpt lat="45.89585" lon="4.48267">
        <ele>528</ele>
        <time>2022-05-29T13:28:34.988Z</time>
      </trkpt>
      <trkpt lat="45.89585" lon="4.48244">
        <ele>528</ele>
        <time>2022-05-29T13:28:36.256Z</time>
      </trkpt>
      <trkpt lat="45.8959" lon="4.48231">
        <ele>528</ele>
        <time>2022-05-29T13:28:37.542Z</time>
      </trkpt>
      <trkpt lat="45.89601" lon="4.4822">
        <ele>529.20001220703</ele>
        <time>2022-05-29T13:28:38.849Z</time>
      </trkpt>
      <trkpt lat="45.89594" lon="4.48221">
        <ele>529.20001220703</ele>
        <time>2022-05-29T13:28:40.167Z</time>
      </trkpt>
      <trkpt lat="45.89593" lon="4.48218">
        <ele>529.20001220703</ele>
        <time>2022-05-29T13:28:41.490Z</time>
      </trkpt>
      <trkpt lat="45.89605" lon="4.48204">
        <ele>529</ele>
        <time>2022-05-29T13:28:42.839Z</time>
      </trkpt>
      <trkpt lat="45.8961" lon="4.48194">
        <ele>529</ele>
        <time>2022-05-29T13:28:44.203Z</time>
      </trkpt>
      <trkpt lat="45.8961" lon="4.48189">
        <ele>529</ele>
        <time>2022-05-29T13:28:45.572Z</time>
      </trkpt>
      <trkpt lat="45.89615" lon="4.48188">
        <ele>529</ele>
        <time>2022-05-29T13:28:46.948Z</time>
      </trkpt>
      <trkpt lat="45.89607" lon="4.48185">
        <ele>529</ele>
        <time>2022-05-29T13:28:48.338Z</time>
      </trkpt>
      <trkpt lat="45.89607" lon="4.48186">
        <ele>529.59997558594</ele>
        <time>2022-05-29T13:28:49.729Z</time>
      </trkpt>
      <trkpt lat="45.89612" lon="4.48177">
        <ele>529.20001220703</ele>
        <time>2022-05-29T13:28:51.133Z</time>
      </trkpt>
      <trkpt lat="45.89618" lon="4.48171">
        <ele>529</ele>
        <time>2022-05-29T13:28:52.550Z</time>
      </trkpt>
      <trkpt lat="45.89619" lon="4.48164">
        <ele>529</ele>
        <time>2022-05-29T13:28:53.976Z</time>
      </trkpt>
      <trkpt lat="45.89629" lon="4.48152">
        <ele>529</ele>
        <time>2022-05-29T13:28:55.421Z</time>
      </trkpt>
      <trkpt lat="45.89628" lon="4.48148">
        <ele>529</ele>
        <time>2022-05-29T13:28:56.872Z</time>
      </trkpt>
      <trkpt lat="45.89633" lon="4.4814">
        <ele>529</ele>
        <time>2022-05-29T13:28:58.333Z</time>
      </trkpt>
      <trkpt lat="45.89632" lon="4.48138">
        <ele>529</ele>
        <time>2022-05-29T13:28:59.798Z</time>
      </trkpt>
      <trkpt lat="45.89632" lon="4.48133">
        <ele>529.20001220703</ele>
        <time>2022-05-29T13:29:01.269Z</time>
      </trkpt>
      <trkpt lat="45.89637" lon="4.48119">
        <ele>529.40002441406</ele>
        <time>2022-05-29T13:29:02.757Z</time>
      </trkpt>
      <trkpt lat="45.89638" lon="4.48109">
        <ele>529.40002441406</ele>
        <time>2022-05-29T13:29:04.257Z</time>
      </trkpt>
      <trkpt lat="45.89647" lon="4.48099">
        <ele>529.79998779297</ele>
        <time>2022-05-29T13:29:05.776Z</time>
      </trkpt>
      <trkpt lat="45.89647" lon="4.48094">
        <ele>529.79998779297</ele>
        <time>2022-05-29T13:29:07.300Z</time>
      </trkpt>
      <trkpt lat="45.89654" lon="4.48086">
        <ele>530</ele>
        <time>2022-05-29T13:29:08.838Z</time>
      </trkpt>
      <trkpt lat="45.89655" lon="4.4808">
        <ele>531.20001220703</ele>
        <time>2022-05-29T13:29:10.383Z</time>
      </trkpt>
      <trkpt lat="45.89661" lon="4.48074">
        <ele>531.20001220703</ele>
        <time>2022-05-29T13:29:11.940Z</time>
      </trkpt>
      <trkpt lat="45.89663" lon="4.48065">
        <ele>531.20001220703</ele>
        <time>2022-05-29T13:29:13.508Z</time>
      </trkpt>
      <trkpt lat="45.89669" lon="4.48062">
        <ele>533</ele>
        <time>2022-05-29T13:29:15.086Z</time>
      </trkpt>
      <trkpt lat="45.89676" lon="4.48053">
        <ele>533.59997558594</ele>
        <time>2022-05-29T13:29:16.679Z</time>
      </trkpt>
      <trkpt lat="45.89679" lon="4.48051">
        <ele>533.59997558594</ele>
        <time>2022-05-29T13:29:18.277Z</time>
      </trkpt>
      <trkpt lat="45.89675" lon="4.48049">
        <ele>533.79998779297</ele>
        <time>2022-05-29T13:29:19.881Z</time>
      </trkpt>
      <trkpt lat="45.89678" lon="4.48043">
        <ele>533.79998779297</ele>
        <time>2022-05-29T13:29:21.493Z</time>
      </trkpt>
      <trkpt lat="45.8969" lon="4.48032">
        <ele>533.20001220703</ele>
        <time>2022-05-29T13:29:23.128Z</time>
      </trkpt>
      <trkpt lat="45.89702" lon="4.48024">
        <ele>533.20001220703</ele>
        <time>2022-05-29T13:29:24.785Z</time>
      </trkpt>
      <trkpt lat="45.89706" lon="4.48014">
        <ele>533.20001220703</ele>
        <time>2022-05-29T13:29:26.455Z</time>
      </trkpt>
      <trkpt lat="45.89708" lon="4.48011">
        <ele>531.79998779297</ele>
        <time>2022-05-29T13:29:28.130Z</time>
      </trkpt>
      <trkpt lat="45.89709" lon="4.48013">
        <ele>531.79998779297</ele>
        <time>2022-05-29T13:29:29.807Z</time>
      </trkpt>
      <trkpt lat="45.89715" lon="4.4801">
        <ele>531.79998779297</ele>
        <time>2022-05-29T13:29:31.494Z</time>
      </trkpt>
      <trkpt lat="45.89725" lon="4.47996">
        <ele>531.79998779297</ele>
        <time>2022-05-29T13:29:33.205Z</time>
      </trkpt>
      <trkpt lat="45.89738" lon="4.47993">
        <ele>531.59997558594</ele>
        <time>2022-05-29T13:29:34.937Z</time>
      </trkpt>
      <trkpt lat="45.89752" lon="4.47996">
        <ele>531.59997558594</ele>
        <time>2022-05-29T13:29:36.693Z</time>
      </trkpt>
      <trkpt lat="45.8976" lon="4.48002">
        <ele>531.59997558594</ele>
        <time>2022-05-29T13:29:38.463Z</time>
      </trkpt>
      <trkpt lat="45.8977" lon="4.48007">
        <ele>531.59997558594</ele>
        <time>2022-05-29T13:29:40.249Z</time>
      </trkpt>
      <trkpt lat="45.89772" lon="4.48013">
        <ele>531.59997558594</ele>
        <time>2022-05-29T13:29:42.043Z</time>
      </trkpt>
      <trkpt lat="45.89794" lon="4.48029">
        <ele>531.59997558594</ele>
        <time>2022-05-29T13:29:43.878Z</time>
      </trkpt>
      <trkpt lat="45.89818" lon="4.48037">
        <ele>531.59997558594</ele>
        <time>2022-05-29T13:29:45.752Z</time>
      </trkpt>
      <trkpt lat="45.89838" lon="4.48036">
        <ele>531.20001220703</ele>
        <time>2022-05-29T13:29:47.660Z</time>
      </trkpt>
      <trkpt lat="45.89847" lon="4.48032">
        <ele>531.20001220703</ele>
        <time>2022-05-29T13:29:49.582Z</time>
      </trkpt>
      <trkpt lat="45.89855" lon="4.48026">
        <ele>531.20001220703</ele>
        <time>2022-05-29T13:29:51.519Z</time>
      </trkpt>
      <trkpt lat="45.89876" lon="4.48005">
        <ele>532.79998779297</ele>
        <time>2022-05-29T13:29:53.498Z</time>
      </trkpt>
      <trkpt lat="45.89886" lon="4.47991">
        <ele>532.79998779297</ele>
        <time>2022-05-29T13:29:55.500Z</time>
      </trkpt>
      <trkpt lat="45.89892" lon="4.47975">
        <ele>533</ele>
        <time>2022-05-29T13:29:57.523Z</time>
      </trkpt>
      <trkpt lat="45.89897" lon="4.4797">
        <ele>533</ele>
        <time>2022-05-29T13:29:59.556Z</time>
      </trkpt>
      <trkpt lat="45.89898" lon="4.47964">
        <ele>533</ele>
        <time>2022-05-29T13:30:01.596Z</time>
      </trkpt>
      <trkpt lat="45.89905" lon="4.47953">
        <ele>533.79998779297</ele>
        <time>2022-05-29T13:30:03.654Z</time>
      </trkpt>
      <trkpt lat="45.89905" lon="4.47948">
        <ele>534</ele>
        <time>2022-05-29T13:30:05.717Z</time>
      </trkpt>
      <trkpt lat="45.89908" lon="4.47941">
        <ele>534</ele>
        <time>2022-05-29T13:30:07.789Z</time>
      </trkpt>
      <trkpt lat="45.89928" lon="4.47911">
        <ele>534.79998779297</ele>
        <time>2022-05-29T13:30:09.908Z</time>
      </trkpt>
      <trkpt lat="45.89938" lon="4.47887">
        <ele>535</ele>
        <time>2022-05-29T13:30:12.060Z</time>
      </trkpt>
      <trkpt lat="45.89938" lon="4.4788">
        <ele>535.40002441406</ele>
        <time>2022-05-29T13:30:14.219Z</time>
      </trkpt>
      <trkpt lat="45.89943" lon="4.47868">
        <ele>536.40002441406</ele>
        <time>2022-05-29T13:30:16.394Z</time>
      </trkpt>
      <trkpt lat="45.8996" lon="4.47845">
        <ele>537.40002441406</ele>
        <time>2022-05-29T13:30:18.607Z</time>
      </trkpt>
      <trkpt lat="45.8996" lon="4.47842">
        <ele>537.40002441406</ele>
        <time>2022-05-29T13:30:20.823Z</time>
      </trkpt>
      <trkpt lat="45.8997" lon="4.47835">
        <ele>538</ele>
        <time>2022-05-29T13:30:23.057Z</time>
      </trkpt>
      <trkpt lat="45.89985" lon="4.47828">
        <ele>538</ele>
        <time>2022-05-29T13:30:25.316Z</time>
      </trkpt>
      <trkpt lat="45.90019" lon="4.47818">
        <ele>538</ele>
        <time>2022-05-29T13:30:27.632Z</time>
      </trkpt>
      <trkpt lat="45.90018" lon="4.47821">
        <ele>544.40002441406</ele>
        <time>2022-05-29T13:30:29.952Z</time>
      </trkpt>
      <trkpt lat="45.90031" lon="4.47817">
        <ele>545.79998779297</ele>
        <time>2022-05-29T13:30:32.293Z</time>
      </trkpt>
      <trkpt lat="45.90038" lon="4.47811">
        <ele>545.79998779297</ele>
        <time>2022-05-29T13:30:34.647Z</time>
      </trkpt>
      <trkpt lat="45.90047" lon="4.478">
        <ele>545.79998779297</ele>
        <time>2022-05-29T13:30:37.020Z</time>
      </trkpt>
      <trkpt lat="45.90056" lon="4.47766">
        <ele>545.79998779297</ele>
        <time>2022-05-29T13:30:39.434Z</time>
      </trkpt>
      <trkpt lat="45.90054" lon="4.47762">
        <ele>545.79998779297</ele>
        <time>2022-05-29T13:30:41.854Z</time>
      </trkpt>
      <trkpt lat="45.90056" lon="4.47757">
        <ele>554.59997558594</ele>
        <time>2022-05-29T13:30:44.280Z</time>
      </trkpt>
      <trkpt lat="45.90056" lon="4.47745">
        <ele>554.59997558594</ele>
        <time>2022-05-29T13:30:46.720Z</time>
      </trkpt>
      <trkpt lat="45.90057" lon="4.4774">
        <ele>554.79998779297</ele>
        <time>2022-05-29T13:30:49.166Z</time>
      </trkpt>
      <trkpt lat="45.90058" lon="4.4774">
        <ele>554.79998779297</ele>
        <time>2022-05-29T13:30:51.614Z</time>
      </trkpt>
      <trkpt lat="45.90063" lon="4.47703">
        <ele>556.40002441406</ele>
        <time>2022-05-29T13:30:54.106Z</time>
      </trkpt>
      <trkpt lat="45.90062" lon="4.47679">
        <ele>557.59997558594</ele>
        <time>2022-05-29T13:30:56.625Z</time>
      </trkpt>
      <trkpt lat="45.90059" lon="4.47676">
        <ele>557.59997558594</ele>
        <time>2022-05-29T13:30:59.150Z</time>
      </trkpt>
      <trkpt lat="45.90061" lon="4.47654">
        <ele>559.20001220703</ele>
        <time>2022-05-29T13:31:01.699Z</time>
      </trkpt>
      <trkpt lat="45.90055" lon="4.47609">
        <ele>562</ele>
        <time>2022-05-29T13:31:04.300Z</time>
      </trkpt>
      <trkpt lat="45.90049" lon="4.47589">
        <ele>562</ele>
        <time>2022-05-29T13:31:06.927Z</time>
      </trkpt>
      <trkpt lat="45.90043" lon="4.47563">
        <ele>565.59997558594</ele>
        <time>2022-05-29T13:31:09.584Z</time>
      </trkpt>
      <trkpt lat="45.90041" lon="4.47557">
        <ele>566.40002441406</ele>
        <time>2022-05-29T13:31:12.250Z</time>
      </trkpt>
      <trkpt lat="45.90037" lon="4.4754">
        <ele>566.40002441406</ele>
        <time>2022-05-29T13:31:14.936Z</time>
      </trkpt>
      <trkpt lat="45.90034" lon="4.47483">
        <ele>569.40002441406</ele>
        <time>2022-05-29T13:31:17.687Z</time>
      </trkpt>
      <trkpt lat="45.90037" lon="4.47476">
        <ele>569.40002441406</ele>
        <time>2022-05-29T13:31:20.447Z</time>
      </trkpt>
      <trkpt lat="45.90034" lon="4.47469">
        <ele>569.79998779297</ele>
        <time>2022-05-29T13:31:23.216Z</time>
      </trkpt>
      <trkpt lat="45.90038" lon="4.47449">
        <ele>569.79998779297</ele>
        <time>2022-05-29T13:31:26.008Z</time>
      </trkpt>
      <trkpt lat="45.90042" lon="4.47433">
        <ele>571</ele>
        <time>2022-05-29T13:31:28.820Z</time>
      </trkpt>
      <trkpt lat="45.90041" lon="4.47422">
        <ele>571.79998779297</ele>
        <time>2022-05-29T13:31:31.645Z</time>
      </trkpt>
      <trkpt lat="45.90045" lon="4.47402">
        <ele>572.59997558594</ele>
        <time>2022-05-29T13:31:34.494Z</time>
      </trkpt>
      <trkpt lat="45.90052" lon="4.47385">
        <ele>574</ele>
        <time>2022-05-29T13:31:37.365Z</time>
      </trkpt>
      <trkpt lat="45.90053" lon="4.47372">
        <ele>574.79998779297</ele>
        <time>2022-05-29T13:31:40.251Z</time>
      </trkpt>
      <trkpt lat="45.90057" lon="4.47368">
        <ele>574.79998779297</ele>
        <time>2022-05-29T13:31:43.144Z</time>
      </trkpt>
      <trkpt lat="45.90057" lon="4.47362">
        <ele>574.79998779297</ele>
        <time>2022-05-29T13:31:46.044Z</time>
      </trkpt>
      <trkpt lat="45.90054" lon="4.47358">
        <ele>576.40002441406</ele>
        <time>2022-05-29T13:31:48.951Z</time>
      </trkpt>
      <trkpt lat="45.90057" lon="4.47334">
        <ele>576.40002441406</ele>
        <time>2022-05-29T13:31:51.886Z</time>
      </trkpt>
      <trkpt lat="45.90058" lon="4.47309">
        <ele>581.20001220703</ele>
        <time>2022-05-29T13:31:54.850Z</time>
      </trkpt>
      <trkpt lat="45.90047" lon="4.47267">
        <ele>581.79998779297</ele>
        <time>2022-05-29T13:31:57.865Z</time>
      </trkpt>
      <trkpt lat="45.90039" lon="4.47246">
        <ele>581.79998779297</ele>
        <time>2022-05-29T13:32:00.907Z</time>
      </trkpt>
      <trkpt lat="45.90031" lon="4.47233">
        <ele>581.79998779297</ele>
        <time>2022-05-29T13:32:03.968Z</time>
      </trkpt>
      <trkpt lat="45.90032" lon="4.47232">
        <ele>583.20001220703</ele>
        <time>2022-05-29T13:32:07.031Z</time>
      </trkpt>
      <trkpt lat="45.90014" lon="4.47206">
        <ele>579.20001220703</ele>
        <time>2022-05-29T13:32:10.136Z</time>
      </trkpt>
      <trkpt lat="45.90012" lon="4.47198">
        <ele>579</ele>
        <time>2022-05-29T13:32:13.250Z</time>
      </trkpt>
      <trkpt lat="45.9001" lon="4.4718">
        <ele>576</ele>
        <time>2022-05-29T13:32:16.386Z</time>
      </trkpt>
      <trkpt lat="45.90012" lon="4.47156">
        <ele>576</ele>
        <time>2022-05-29T13:32:19.550Z</time>
      </trkpt>
      <trkpt lat="45.90021" lon="4.47112">
        <ele>569.59997558594</ele>
        <time>2022-05-29T13:32:22.765Z</time>
      </trkpt>
      <trkpt lat="45.90021" lon="4.47102">
        <ele>569.20001220703</ele>
        <time>2022-05-29T13:32:25.992Z</time>
      </trkpt>
      <trkpt lat="45.90032" lon="4.47065">
        <ele>569.20001220703</ele>
        <time>2022-05-29T13:32:29.264Z</time>
      </trkpt>
      <trkpt lat="45.90033" lon="4.47028">
        <ele>565.40002441406</ele>
        <time>2022-05-29T13:32:32.579Z</time>
      </trkpt>
      <trkpt lat="45.90031" lon="4.47021">
        <ele>565.40002441406</ele>
        <time>2022-05-29T13:32:35.903Z</time>
      </trkpt>
      <trkpt lat="45.90032" lon="4.47015">
        <ele>565.20001220703</ele>
        <time>2022-05-29T13:32:39.234Z</time>
      </trkpt>
      <trkpt lat="45.90035" lon="4.47011">
        <ele>565.20001220703</ele>
        <time>2022-05-29T13:32:42.570Z</time>
      </trkpt>
      <trkpt lat="45.90032" lon="4.47003">
        <ele>564.59997558594</ele>
        <time>2022-05-29T13:32:45.917Z</time>
      </trkpt>
      <trkpt lat="45.90035" lon="4.46987">
        <ele>564.59997558594</ele>
        <time>2022-05-29T13:32:49.282Z</time>
      </trkpt>
      <trkpt lat="45.90037" lon="4.46984">
        <ele>564.59997558594</ele>
        <time>2022-05-29T13:32:52.652Z</time>
      </trkpt>
      <trkpt lat="45.90039" lon="4.46973">
        <ele>564.59997558594</ele>
        <time>2022-05-29T13:32:56.035Z</time>
      </trkpt>
      <trkpt lat="45.90043" lon="4.46977">
        <ele>564.59997558594</ele>
        <time>2022-05-29T13:32:59.427Z</time>
      </trkpt>
      <trkpt lat="45.90045" lon="4.46974">
        <ele>562.20001220703</ele>
        <time>2022-05-29T13:33:02.823Z</time>
      </trkpt>
      <trkpt lat="45.90045" lon="4.46966">
        <ele>562.20001220703</ele>
        <time>2022-05-29T13:33:06.228Z</time>
      </trkpt>
      <trkpt lat="45.90052" lon="4.46956">
        <ele>562.20001220703</ele>
        <time>2022-05-29T13:33:09.649Z</time>
      </trkpt>
      <trkpt lat="45.90045" lon="4.46957">
        <ele>562.20001220703</ele>
        <time>2022-05-29T13:33:13.082Z</time>
      </trkpt>
      <trkpt lat="45.90046" lon="4.46962">
        <ele>562.20001220703</ele>
        <time>2022-05-29T13:33:16.522Z</time>
      </trkpt>
      <trkpt lat="45.90044" lon="4.4695">
        <ele>562.20001220703</ele>
        <time>2022-05-29T13:33:19.976Z</time>
      </trkpt>
      <trkpt lat="45.90044" lon="4.4694">
        <ele>562.20001220703</ele>
        <time>2022-05-29T13:33:23.441Z</time>
      </trkpt>
      <trkpt lat="45.90044" lon="4.46943">
        <ele>560.79998779297</ele>
        <time>2022-05-29T13:33:26.909Z</time>
      </trkpt>
      <trkpt lat="45.9005" lon="4.46945">
        <ele>560.79998779297</ele>
        <time>2022-05-29T13:33:30.387Z</time>
      </trkpt>
      <trkpt lat="45.90055" lon="4.46935">
        <ele>560.40002441406</ele>
        <time>2022-05-29T13:33:33.879Z</time>
      </trkpt>
      <trkpt lat="45.9006" lon="4.4692">
        <ele>560.20001220703</ele>
        <time>2022-05-29T13:33:37.390Z</time>
      </trkpt>
      <trkpt lat="45.90058" lon="4.46908">
        <ele>559.59997558594</ele>
        <time>2022-05-29T13:33:40.915Z</time>
      </trkpt>
      <trkpt lat="45.90069" lon="4.469">
        <ele>559.59997558594</ele>
        <time>2022-05-29T13:33:44.459Z</time>
      </trkpt>
      <trkpt lat="45.90058" lon="4.46893">
        <ele>559</ele>
        <time>2022-05-29T13:33:48.022Z</time>
      </trkpt>
      <trkpt lat="45.90062" lon="4.46889">
        <ele>558.40002441406</ele>
        <time>2022-05-29T13:33:51.594Z</time>
      </trkpt>
      <trkpt lat="45.90063" lon="4.46883">
        <ele>557.79998779297</ele>
        <time>2022-05-29T13:33:55.173Z</time>
      </trkpt>
      <trkpt lat="45.90061" lon="4.46881">
        <ele>557.20001220703</ele>
        <time>2022-05-29T13:33:58.756Z</time>
      </trkpt>
      <trkpt lat="45.90062" lon="4.46879">
        <ele>557</ele>
        <time>2022-05-29T13:34:02.342Z</time>
      </trkpt>
      <trkpt lat="45.90071" lon="4.46872">
        <ele>556</ele>
        <time>2022-05-29T13:34:05.945Z</time>
      </trkpt>
      <trkpt lat="45.90076" lon="4.46859">
        <ele>556</ele>
        <time>2022-05-29T13:34:09.565Z</time>
      </trkpt>
      <trkpt lat="45.90093" lon="4.46854">
        <ele>551.59997558594</ele>
        <time>2022-05-29T13:34:13.213Z</time>
      </trkpt>
      <trkpt lat="45.90099" lon="4.46846">
        <ele>551.20001220703</ele>
        <time>2022-05-29T13:34:16.876Z</time>
      </trkpt>
      <trkpt lat="45.90101" lon="4.4684">
        <ele>551.20001220703</ele>
        <time>2022-05-29T13:34:20.545Z</time>
      </trkpt>
      <trkpt lat="45.90104" lon="4.46837">
        <ele>551.20001220703</ele>
        <time>2022-05-29T13:34:24.221Z</time>
      </trkpt>
      <trkpt lat="45.9011" lon="4.46828">
        <ele>551.20001220703</ele>
        <time>2022-05-29T13:34:27.911Z</time>
      </trkpt>
      <trkpt lat="45.90112" lon="4.46821">
        <ele>550.20001220703</ele>
        <time>2022-05-29T13:34:31.610Z</time>
      </trkpt>
      <trkpt lat="45.90117" lon="4.46815">
        <ele>548.79998779297</ele>
        <time>2022-05-29T13:34:35.320Z</time>
      </trkpt>
      <trkpt lat="45.90118" lon="4.46813">
        <ele>546.40002441406</ele>
        <time>2022-05-29T13:34:39.032Z</time>
      </trkpt>
      <trkpt lat="45.90115" lon="4.46813">
        <ele>546.40002441406</ele>
        <time>2022-05-29T13:34:42.748Z</time>
      </trkpt>
      <trkpt lat="45.9012" lon="4.4682">
        <ele>544.59997558594</ele>
        <time>2022-05-29T13:34:46.475Z</time>
      </trkpt>
      <trkpt lat="45.90121" lon="4.46821">
        <ele>544.20001220703</ele>
        <time>2022-05-29T13:34:50.205Z</time>
      </trkpt>
      <trkpt lat="45.90128" lon="4.46803">
        <ele>543</ele>
        <time>2022-05-29T13:34:53.958Z</time>
      </trkpt>
      <trkpt lat="45.90136" lon="4.46792">
        <ele>543</ele>
        <time>2022-05-29T13:34:57.728Z</time>
      </trkpt>
      <trkpt lat="45.90141" lon="4.46789">
        <ele>541</ele>
        <time>2022-05-29T13:35:01.507Z</time>
      </trkpt>
      <trkpt lat="45.90148" lon="4.4678">
        <ele>540.79998779297</ele>
        <time>2022-05-29T13:35:05.301Z</time>
      </trkpt>
      <trkpt lat="45.90154" lon="4.46767">
        <ele>540.79998779297</ele>
        <time>2022-05-29T13:35:09.113Z</time>
      </trkpt>
      <trkpt lat="45.90156" lon="4.46764">
        <ele>540.79998779297</ele>
        <time>2022-05-29T13:35:12.930Z</time>
      </trkpt>
      <trkpt lat="45.90158" lon="4.46766">
        <ele>541.20001220703</ele>
        <time>2022-05-29T13:35:16.752Z</time>
      </trkpt>
      <trkpt lat="45.90158" lon="4.4676">
        <ele>541.20001220703</ele>
        <time>2022-05-29T13:35:20.580Z</time>
      </trkpt>
      <trkpt lat="45.90166" lon="4.46762">
        <ele>541.20001220703</ele>
        <time>2022-05-29T13:35:24.421Z</time>
      </trkpt>
      <trkpt lat="45.90158" lon="4.46754">
        <ele>540.79998779297</ele>
        <time>2022-05-29T13:35:28.277Z</time>
      </trkpt>
      <trkpt lat="45.90147" lon="4.46733">
        <ele>540.59997558594</ele>
        <time>2022-05-29T13:35:32.163Z</time>
      </trkpt>
      <trkpt lat="45.90148" lon="4.46731">
        <ele>540.59997558594</ele>
        <time>2022-05-29T13:35:36.052Z</time>
      </trkpt>
      <trkpt lat="45.90162" lon="4.46732">
        <ele>540.40002441406</ele>
        <time>2022-05-29T13:35:39.965Z</time>
      </trkpt>
      <trkpt lat="45.90175" lon="4.46738">
        <ele>540</ele>
        <time>2022-05-29T13:35:43.900Z</time>
      </trkpt>
      <trkpt lat="45.90185" lon="4.46736">
        <ele>539.59997558594</ele>
        <time>2022-05-29T13:35:47.852Z</time>
      </trkpt>
      <trkpt lat="45.90189" lon="4.46731">
        <ele>539</ele>
        <time>2022-05-29T13:35:51.813Z</time>
      </trkpt>
      <trkpt lat="45.90199" lon="4.46735">
        <ele>537</ele>
        <time>2022-05-29T13:35:55.790Z</time>
      </trkpt>
      <trkpt lat="45.90206" lon="4.46733">
        <ele>536.20001220703</ele>
        <time>2022-05-29T13:35:59.779Z</time>
      </trkpt>
      <trkpt lat="45.90212" lon="4.46727">
        <ele>536.20001220703</ele>
        <time>2022-05-29T13:36:03.780Z</time>
      </trkpt>
      <trkpt lat="45.90215" lon="4.46722">
        <ele>536.20001220703</ele>
        <time>2022-05-29T13:36:07.788Z</time>
      </trkpt>
      <trkpt lat="45.9022" lon="4.4672">
        <ele>533.79998779297</ele>
        <time>2022-05-29T13:36:11.804Z</time>
      </trkpt>
      <trkpt lat="45.9023" lon="4.46717">
        <ele>533.79998779297</ele>
        <time>2022-05-29T13:36:15.837Z</time>
      </trkpt>
      <trkpt lat="45.90237" lon="4.46712">
        <ele>532.59997558594</ele>
        <time>2022-05-29T13:36:19.883Z</time>
      </trkpt>
      <trkpt lat="45.90245" lon="4.46699">
        <ele>532.59997558594</ele>
        <time>2022-05-29T13:36:23.949Z</time>
      </trkpt>
      <trkpt lat="45.90254" lon="4.46688">
        <ele>531.79998779297</ele>
        <time>2022-05-29T13:36:28.035Z</time>
      </trkpt>
      <trkpt lat="45.90262" lon="4.46683">
        <ele>531.79998779297</ele>
        <time>2022-05-29T13:36:32.135Z</time>
      </trkpt>
      <trkpt lat="45.90267" lon="4.46672">
        <ele>531.79998779297</ele>
        <time>2022-05-29T13:36:36.250Z</time>
      </trkpt>
      <trkpt lat="45.90271" lon="4.46671">
        <ele>531.79998779297</ele>
        <time>2022-05-29T13:36:40.371Z</time>
      </trkpt>
      <trkpt lat="45.90276" lon="4.46663">
        <ele>529.20001220703</ele>
        <time>2022-05-29T13:36:44.505Z</time>
      </trkpt>
      <trkpt lat="45.90281" lon="4.4666">
        <ele>529.20001220703</ele>
        <time>2022-05-29T13:36:48.647Z</time>
      </trkpt>
      <trkpt lat="45.90281" lon="4.46656">
        <ele>528</ele>
        <time>2022-05-29T13:36:52.795Z</time>
      </trkpt>
      <trkpt lat="45.90286" lon="4.46646">
        <ele>527.20001220703</ele>
        <time>2022-05-29T13:36:56.956Z</time>
      </trkpt>
      <trkpt lat="45.90288" lon="4.46647">
        <ele>527</ele>
        <time>2022-05-29T13:37:01.121Z</time>
      </trkpt>
      <trkpt lat="45.90288" lon="4.4665">
        <ele>527</ele>
        <time>2022-05-29T13:37:05.289Z</time>
      </trkpt>
      <trkpt lat="45.90297" lon="4.46639">
        <ele>523.59997558594</ele>
        <time>2022-05-29T13:37:09.476Z</time>
      </trkpt>
      <trkpt lat="45.9031" lon="4.46607">
        <ele>523.79998779297</ele>
        <time>2022-05-29T13:37:13.705Z</time>
      </trkpt>
      <trkpt lat="45.90314" lon="4.46603">
        <ele>523.20001220703</ele>
        <time>2022-05-29T13:37:17.942Z</time>
      </trkpt>
      <trkpt lat="45.90318" lon="4.46596">
        <ele>522.59997558594</ele>
        <time>2022-05-29T13:37:22.189Z</time>
      </trkpt>
      <trkpt lat="45.90322" lon="4.46579">
        <ele>522</ele>
        <time>2022-05-29T13:37:26.456Z</time>
      </trkpt>
      <trkpt lat="45.90328" lon="4.4657">
        <ele>521.20001220703</ele>
        <time>2022-05-29T13:37:30.738Z</time>
      </trkpt>
      <trkpt lat="45.9034" lon="4.46559">
        <ele>521.20001220703</ele>
        <time>2022-05-29T13:37:35.043Z</time>
      </trkpt>
      <trkpt lat="45.90356" lon="4.46528">
        <ele>521.20001220703</ele>
        <time>2022-05-29T13:37:39.392Z</time>
      </trkpt>
      <trkpt lat="45.90359" lon="4.46481">
        <ele>521.20001220703</ele>
        <time>2022-05-29T13:37:43.795Z</time>
      </trkpt>
      <trkpt lat="45.90352" lon="4.46445">
        <ele>521.20001220703</ele>
        <time>2022-05-29T13:37:48.241Z</time>
      </trkpt>
      <trkpt lat="45.90354" lon="4.46422">
        <ele>521.20001220703</ele>
        <time>2022-05-29T13:37:52.714Z</time>
      </trkpt>
      <trkpt lat="45.90334" lon="4.4641">
        <ele>525</ele>
        <time>2022-05-29T13:37:57.221Z</time>
      </trkpt>
      <trkpt lat="45.90327" lon="4.46409">
        <ele>525</ele>
        <time>2022-05-29T13:38:01.740Z</time>
      </trkpt>
      <trkpt lat="45.90324" lon="4.46406">
        <ele>526</ele>
        <time>2022-05-29T13:38:06.266Z</time>
      </trkpt>
      <trkpt lat="45.9032" lon="4.46399">
        <ele>526.40002441406</ele>
        <time>2022-05-29T13:38:10.802Z</time>
      </trkpt>
      <trkpt lat="45.90319" lon="4.464">
        <ele>526.40002441406</ele>
        <time>2022-05-29T13:38:15.341Z</time>
      </trkpt>
      <trkpt lat="45.90304" lon="4.46396">
        <ele>526.40002441406</ele>
        <time>2022-05-29T13:38:19.904Z</time>
      </trkpt>
      <trkpt lat="45.9026" lon="4.46411">
        <ele>528</ele>
        <time>2022-05-29T13:38:24.541Z</time>
      </trkpt>
      <trkpt lat="45.90263" lon="4.46414">
        <ele>528</ele>
        <time>2022-05-29T13:38:29.184Z</time>
      </trkpt>
      <trkpt lat="45.90261" lon="4.46416">
        <ele>528</ele>
        <time>2022-05-29T13:38:33.831Z</time>
      </trkpt>
      <trkpt lat="45.90262" lon="4.46417">
        <ele>528</ele>
        <time>2022-05-29T13:38:38.480Z</time>
      </trkpt>
      <trkpt lat="45.90255" lon="4.46423">
        <ele>528</ele>
        <time>2022-05-29T13:38:43.143Z</time>
      </trkpt>
      <trkpt lat="45.90241" lon="4.46417">
        <ele>528</ele>
        <time>2022-05-29T13:38:47.828Z</time>
      </trkpt>
      <trkpt lat="45.90249" lon="4.46417">
        <ele>528</ele>
        <time>2022-05-29T13:38:52.526Z</time>
      </trkpt>
      <trkpt lat="45.90239" lon="4.46422">
        <ele>528</ele>
        <time>2022-05-29T13:38:57.242Z</time>
      </trkpt>
      <trkpt lat="45.90247" lon="4.46416">
        <ele>528</ele>
        <time>2022-05-29T13:39:01.973Z</time>
      </trkpt>
      <trkpt lat="45.9024" lon="4.46418">
        <ele>528</ele>
        <time>2022-05-29T13:39:06.715Z</time>
      </trkpt>
      <trkpt lat="45.90231" lon="4.46403">
        <ele>528.20001220703</ele>
        <time>2022-05-29T13:39:11.479Z</time>
      </trkpt>
      <trkpt lat="45.90236" lon="4.46403">
        <ele>528.20001220703</ele>
        <time>2022-05-29T13:39:16.252Z</time>
      </trkpt>
      <trkpt lat="45.90245" lon="4.46381">
        <ele>528.20001220703</ele>
        <time>2022-05-29T13:39:21.052Z</time>
      </trkpt>
      <trkpt lat="45.90267" lon="4.46377">
        <ele>528.20001220703</ele>
        <time>2022-05-29T13:39:25.890Z</time>
      </trkpt>
      <trkpt lat="45.90268" lon="4.46379">
        <ele>529.59997558594</ele>
        <time>2022-05-29T13:39:30.730Z</time>
      </trkpt>
      <trkpt lat="45.90263" lon="4.46379">
        <ele>529.59997558594</ele>
        <time>2022-05-29T13:39:35.579Z</time>
      </trkpt>
      <trkpt lat="45.9026" lon="4.46382">
        <ele>529.59997558594</ele>
        <time>2022-05-29T13:39:40.434Z</time>
      </trkpt>
      <trkpt lat="45.90258" lon="4.4639">
        <ele>529.59997558594</ele>
        <time>2022-05-29T13:39:45.299Z</time>
      </trkpt>
      <trkpt lat="45.9026" lon="4.4639">
        <ele>530.59997558594</ele>
        <time>2022-05-29T13:39:50.167Z</time>
      </trkpt>
      <trkpt lat="45.90261" lon="4.46393">
        <ele>532.40002441406</ele>
        <time>2022-05-29T13:39:55.039Z</time>
      </trkpt>
      <trkpt lat="45.90256" lon="4.46395">
        <ele>532.40002441406</ele>
        <time>2022-05-29T13:39:59.919Z</time>
      </trkpt>
      <trkpt lat="45.90258" lon="4.46393">
        <ele>532.40002441406</ele>
        <time>2022-05-29T13:40:04.803Z</time>
      </trkpt>
      <trkpt lat="45.90273" lon="4.46389">
        <ele>528.40002441406</ele>
        <time>2022-05-29T13:40:09.712Z</time>
      </trkpt>
      <trkpt lat="45.90285" lon="4.4639">
        <ele>528.40002441406</ele>
        <time>2022-05-29T13:40:14.640Z</time>
      </trkpt>
      <trkpt lat="45.90285" lon="4.4639">
        <ele>522.2</ele>
        <extensions>
          <visugpx:TrkExtension xmlns:visugpx="https://www.visugpx.com/editgpx/">
            <visugpx:node>3</visugpx:node>
            </visugpx:TrkExtension>
        </extensions>
      </trkpt>
      <trkpt lat="45.90282" lon="4.46392">
        <ele>528.40002441406</ele>
        <time>2022-05-29T13:40:19.573Z</time>
      </trkpt>
      <trkpt lat="45.90274" lon="4.46409">
        <ele>528.40002441406</ele>
        <time>2022-05-29T13:40:24.529Z</time>
      </trkpt>
      <trkpt lat="45.90268" lon="4.46417">
        <ele>528.40002441406</ele>
        <time>2022-05-29T13:40:29.499Z</time>
      </trkpt>
      <trkpt lat="45.90262" lon="4.46431">
        <ele>528.40002441406</ele>
        <time>2022-05-29T13:40:34.488Z</time>
      </trkpt>
      <trkpt lat="45.90256" lon="4.46438">
        <ele>528.40002441406</ele>
        <time>2022-05-29T13:40:39.489Z</time>
      </trkpt>
      <trkpt lat="45.90253" lon="4.46439">
        <ele>530</ele>
        <time>2022-05-29T13:40:44.494Z</time>
      </trkpt>
      <trkpt lat="45.90238" lon="4.4644">
        <ele>530</ele>
        <time>2022-05-29T13:40:49.524Z</time>
      </trkpt>
      <trkpt lat="45.90228" lon="4.46447">
        <ele>530</ele>
        <time>2022-05-29T13:40:54.572Z</time>
      </trkpt>
      <trkpt lat="45.90217" lon="4.46445">
        <ele>531.20001220703</ele>
        <time>2022-05-29T13:40:59.639Z</time>
      </trkpt>
      <trkpt lat="45.90211" lon="4.4645">
        <ele>531.20001220703</ele>
        <time>2022-05-29T13:41:04.717Z</time>
      </trkpt>
      <trkpt lat="45.9021" lon="4.46449">
        <ele>531.59997558594</ele>
        <time>2022-05-29T13:41:09.796Z</time>
      </trkpt>
      <trkpt lat="45.90204" lon="4.46449">
        <ele>532.20001220703</ele>
        <time>2022-05-29T13:41:14.886Z</time>
      </trkpt>
      <trkpt lat="45.90204" lon="4.46445">
        <ele>533</ele>
        <time>2022-05-29T13:41:19.980Z</time>
      </trkpt>
      <trkpt lat="45.90182" lon="4.46459">
        <ele>532.20001220703</ele>
        <time>2022-05-29T13:41:25.113Z</time>
      </trkpt>
      <trkpt lat="45.9017" lon="4.46459">
        <ele>532.20001220703</ele>
        <time>2022-05-29T13:41:30.266Z</time>
      </trkpt>
      <trkpt lat="45.9016" lon="4.46463">
        <ele>532.20001220703</ele>
        <time>2022-05-29T13:41:35.436Z</time>
      </trkpt>
      <trkpt lat="45.90154" lon="4.46461">
        <ele>532.20001220703</ele>
        <time>2022-05-29T13:41:40.617Z</time>
      </trkpt>
      <trkpt lat="45.90146" lon="4.46467">
        <ele>530.20001220703</ele>
        <time>2022-05-29T13:41:45.812Z</time>
      </trkpt>
      <trkpt lat="45.90134" lon="4.46458">
        <ele>530.20001220703</ele>
        <time>2022-05-29T13:41:51.029Z</time>
      </trkpt>
      <trkpt lat="45.9011" lon="4.46456">
        <ele>530.20001220703</ele>
        <time>2022-05-29T13:41:56.285Z</time>
      </trkpt>
      <trkpt lat="45.90096" lon="4.4645">
        <ele>532</ele>
        <time>2022-05-29T13:42:01.565Z</time>
      </trkpt>
      <trkpt lat="45.90091" lon="4.46446">
        <ele>532</ele>
        <time>2022-05-29T13:42:06.854Z</time>
      </trkpt>
      <trkpt lat="45.90081" lon="4.46446">
        <ele>532</ele>
        <time>2022-05-29T13:42:12.160Z</time>
      </trkpt>
      <trkpt lat="45.90072" lon="4.46436">
        <ele>531.40002441406</ele>
        <time>2022-05-29T13:42:17.484Z</time>
      </trkpt>
      <trkpt lat="45.9006" lon="4.46427">
        <ele>531.59997558594</ele>
        <time>2022-05-29T13:42:22.830Z</time>
      </trkpt>
      <trkpt lat="45.90051" lon="4.46422">
        <ele>531.79998779297</ele>
        <time>2022-05-29T13:42:28.192Z</time>
      </trkpt>
      <trkpt lat="45.90043" lon="4.46415">
        <ele>531.79998779297</ele>
        <time>2022-05-29T13:42:33.569Z</time>
      </trkpt>
      <trkpt lat="45.90032" lon="4.4641">
        <ele>531.79998779297</ele>
        <time>2022-05-29T13:42:38.966Z</time>
      </trkpt>
      <trkpt lat="45.90024" lon="4.46399">
        <ele>533</ele>
        <time>2022-05-29T13:42:44.381Z</time>
      </trkpt>
      <trkpt lat="45.90014" lon="4.46391">
        <ele>533</ele>
        <time>2022-05-29T13:42:49.816Z</time>
      </trkpt>
      <trkpt lat="45.90012" lon="4.46384">
        <ele>533</ele>
        <time>2022-05-29T13:42:55.259Z</time>
      </trkpt>
      <trkpt lat="45.90008" lon="4.46374">
        <ele>533</ele>
        <time>2022-05-29T13:43:00.716Z</time>
      </trkpt>
      <trkpt lat="45.90005" lon="4.46351">
        <ele>531.59997558594</ele>
        <time>2022-05-29T13:43:06.199Z</time>
      </trkpt>
      <trkpt lat="45.90002" lon="4.46349">
        <ele>531.59997558594</ele>
        <time>2022-05-29T13:43:11.687Z</time>
      </trkpt>
      <trkpt lat="45.90003" lon="4.46348">
        <ele>530.20001220703</ele>
        <time>2022-05-29T13:43:17.177Z</time>
      </trkpt>
      <trkpt lat="45.89997" lon="4.46341">
        <ele>530.20001220703</ele>
        <time>2022-05-29T13:43:22.680Z</time>
      </trkpt>
      <trkpt lat="45.89995" lon="4.4634">
        <ele>528.9</ele>
        <extensions>
          <visugpx:TrkExtension xmlns:visugpx="https://www.visugpx.com/editgpx/">
            <visugpx:node>5</visugpx:node>
            </visugpx:TrkExtension>
        </extensions>
      </trkpt>
      <trkpt lat="45.89997" lon="4.46289">
        <ele>537.2</ele>
      </trkpt>
      <trkpt lat="45.89994" lon="4.4628">
        <ele>537.3</ele>
      </trkpt>
      <trkpt lat="45.89997" lon="4.46289">
        <ele>537.2</ele>
      </trkpt>
      <trkpt lat="45.89996" lon="4.46332">
        <ele>530.6</ele>
        <extensions>
          <visugpx:TrkExtension xmlns:visugpx="https://www.visugpx.com/editgpx/">
            <visugpx:node>4</visugpx:node>
            </visugpx:TrkExtension>
        </extensions>
      </trkpt>
      <trkpt lat="45.89995" lon="4.46336">
        <ele>530.79998779297</ele>
        <time>2022-05-29T13:44:25.069Z</time>
      </trkpt>
      <trkpt lat="45.89993" lon="4.46334">
        <ele>530.79998779297</ele>
        <time>2022-05-29T13:44:30.825Z</time>
      </trkpt>
      <trkpt lat="45.89994" lon="4.46335">
        <ele>530.79998779297</ele>
        <time>2022-05-29T13:44:36.583Z</time>
      </trkpt>
      <trkpt lat="45.89992" lon="4.46336">
        <ele>530.79998779297</ele>
        <time>2022-05-29T13:44:42.344Z</time>
      </trkpt>
      <trkpt lat="45.8999" lon="4.46344">
        <ele>531</ele>
        <time>2022-05-29T13:44:48.115Z</time>
        <extensions>
          <visugpx:TrkExtension xmlns:visugpx="https://www.visugpx.com/editgpx/">
            <visugpx:node>7</visugpx:node>
            </visugpx:TrkExtension>
        </extensions>
      </trkpt>
      <trkpt lat="45.89986" lon="4.46362">
        <ele>531</ele>
        <time>2022-05-29T13:44:53.907Z</time>
      </trkpt>
      <trkpt lat="45.89992" lon="4.46368">
        <ele>531</ele>
        <time>2022-05-29T13:44:59.711Z</time>
      </trkpt>
      <trkpt lat="45.89992" lon="4.46374">
        <ele>531</ele>
        <time>2022-05-29T13:45:05.521Z</time>
      </trkpt>
      <trkpt lat="45.89994" lon="4.46376">
        <ele>531</ele>
        <time>2022-05-29T13:45:11.335Z</time>
      </trkpt>
      <trkpt lat="45.89997" lon="4.46379">
        <ele>531</ele>
        <time>2022-05-29T13:45:17.155Z</time>
      </trkpt>
      <trkpt lat="45.90009" lon="4.4636">
        <ele>531.20001220703</ele>
        <time>2022-05-29T13:45:23.004Z</time>
      </trkpt>
      <trkpt lat="45.90009" lon="4.46356">
        <ele>531.20001220703</ele>
        <time>2022-05-29T13:45:28.857Z</time>
      </trkpt>
      <trkpt lat="45.90015" lon="4.46356">
        <ele>531.20001220703</ele>
        <time>2022-05-29T13:45:34.719Z</time>
      </trkpt>
      <trkpt lat="45.9002" lon="4.46361">
        <ele>531.59997558594</ele>
        <time>2022-05-29T13:45:40.591Z</time>
      </trkpt>
      <trkpt lat="45.90026" lon="4.46385">
        <ele>532.40002441406</ele>
        <time>2022-05-29T13:45:46.492Z</time>
      </trkpt>
      <trkpt lat="45.90035" lon="4.46403">
        <ele>532.40002441406</ele>
        <time>2022-05-29T13:45:52.418Z</time>
      </trkpt>
      <trkpt lat="45.90053" lon="4.46422">
        <ele>532.40002441406</ele>
        <time>2022-05-29T13:45:58.381Z</time>
      </trkpt>
      <trkpt lat="45.90071" lon="4.46427">
        <ele>532.40002441406</ele>
        <time>2022-05-29T13:46:04.374Z</time>
      </trkpt>
      <trkpt lat="45.90078" lon="4.46431">
        <ele>532.40002441406</ele>
        <time>2022-05-29T13:46:10.378Z</time>
      </trkpt>
      <trkpt lat="45.90103" lon="4.4644">
        <ele>532.59997558594</ele>
        <time>2022-05-29T13:46:16.425Z</time>
      </trkpt>
      <trkpt lat="45.90131" lon="4.46448">
        <ele>532.59997558594</ele>
        <time>2022-05-29T13:46:22.519Z</time>
      </trkpt>
      <trkpt lat="45.90138" lon="4.46453">
        <ele>531.20001220703</ele>
        <time>2022-05-29T13:46:28.626Z</time>
      </trkpt>
      <trkpt lat="45.90146" lon="4.4645">
        <ele>530.40002441406</ele>
        <time>2022-05-29T13:46:34.746Z</time>
      </trkpt>
      <trkpt lat="45.90152" lon="4.46453">
        <ele>530.40002441406</ele>
        <time>2022-05-29T13:46:40.876Z</time>
      </trkpt>
      <trkpt lat="45.90157" lon="4.46448">
        <ele>530.40002441406</ele>
        <time>2022-05-29T13:46:47.016Z</time>
      </trkpt>
      <trkpt lat="45.90163" lon="4.46449">
        <ele>530.40002441406</ele>
        <time>2022-05-29T13:46:53.165Z</time>
      </trkpt>
      <trkpt lat="45.90174" lon="4.46444">
        <ele>530.40002441406</ele>
        <time>2022-05-29T13:46:59.333Z</time>
      </trkpt>
      <trkpt lat="45.90183" lon="4.46444">
        <ele>530.40002441406</ele>
        <time>2022-05-29T13:47:05.515Z</time>
      </trkpt>
      <trkpt lat="45.902" lon="4.46438">
        <ele>530.40002441406</ele>
        <time>2022-05-29T13:47:11.726Z</time>
      </trkpt>
      <trkpt lat="45.90207" lon="4.46438">
        <ele>530.40002441406</ele>
        <time>2022-05-29T13:47:17.948Z</time>
      </trkpt>
      <trkpt lat="45.90213" lon="4.46433">
        <ele>530.40002441406</ele>
        <time>2022-05-29T13:47:24.181Z</time>
      </trkpt>
      <trkpt lat="45.90221" lon="4.46434">
        <ele>530.40002441406</ele>
        <time>2022-05-29T13:47:30.428Z</time>
      </trkpt>
      <trkpt lat="45.90223" lon="4.46436">
        <ele>530.40002441406</ele>
        <time>2022-05-29T13:47:36.680Z</time>
      </trkpt>
      <trkpt lat="45.90228" lon="4.46433">
        <ele>532.59997558594</ele>
        <time>2022-05-29T13:47:42.940Z</time>
      </trkpt>
      <trkpt lat="45.90239" lon="4.4643">
        <ele>532.59997558594</ele>
        <time>2022-05-29T13:47:49.218Z</time>
      </trkpt>
      <trkpt lat="45.90259" lon="4.46417">
        <ele>532.59997558594</ele>
        <time>2022-05-29T13:47:55.532Z</time>
      </trkpt>
      <trkpt lat="45.90269" lon="4.46405">
        <ele>532.59997558594</ele>
        <time>2022-05-29T13:48:01.868Z</time>
      </trkpt>
      <trkpt lat="45.90274" lon="4.46402">
        <ele>532.59997558594</ele>
        <time>2022-05-29T13:48:08.213Z</time>
      </trkpt>
      <trkpt lat="45.90283" lon="4.46387">
        <ele>532.59997558594</ele>
        <time>2022-05-29T13:48:14.581Z</time>
      </trkpt>
      <trkpt lat="45.90285" lon="4.46386">
        <ele>529.20001220703</ele>
        <time>2022-05-29T13:48:20.951Z</time>
      </trkpt>
      <trkpt lat="45.90291" lon="4.46378">
        <ele>529.20001220703</ele>
        <time>2022-05-29T13:48:27.335Z</time>
      </trkpt>
      <trkpt lat="45.90303" lon="4.46374">
        <ele>526.59997558594</ele>
        <time>2022-05-29T13:48:33.739Z</time>
      </trkpt>
      <trkpt lat="45.90307" lon="4.46369">
        <ele>526.59997558594</ele>
        <time>2022-05-29T13:48:40.151Z</time>
      </trkpt>
      <trkpt lat="45.90315" lon="4.46374">
        <ele>524.59997558594</ele>
        <time>2022-05-29T13:48:46.578Z</time>
      </trkpt>
      <trkpt lat="45.90325" lon="4.46385">
        <ele>524.59997558594</ele>
        <time>2022-05-29T13:48:53.025Z</time>
      </trkpt>
      <trkpt lat="45.90329" lon="4.46391">
        <ele>524.59997558594</ele>
        <time>2022-05-29T13:48:59.481Z</time>
      </trkpt>
      <trkpt lat="45.90335" lon="4.46396">
        <ele>524.59997558594</ele>
        <time>2022-05-29T13:49:05.949Z</time>
      </trkpt>
      <trkpt lat="45.90333" lon="4.46394">
        <ele>523</ele>
        <time>2022-05-29T13:49:12.422Z</time>
      </trkpt>
      <trkpt lat="45.90352" lon="4.46438">
        <ele>523.59997558594</ele>
        <time>2022-05-29T13:49:18.954Z</time>
      </trkpt>
      <trkpt lat="45.90354" lon="4.46451">
        <ele>523.59997558594</ele>
        <time>2022-05-29T13:49:25.501Z</time>
      </trkpt>
      <trkpt lat="45.90359" lon="4.46464">
        <ele>523.59997558594</ele>
        <time>2022-05-29T13:49:32.064Z</time>
      </trkpt>
      <trkpt lat="45.90358" lon="4.46471">
        <ele>523.59997558594</ele>
        <time>2022-05-29T13:49:38.636Z</time>
      </trkpt>
      <trkpt lat="45.9036" lon="4.46478">
        <ele>523.59997558594</ele>
        <time>2022-05-29T13:49:45.217Z</time>
      </trkpt>
      <trkpt lat="45.90361" lon="4.46489">
        <ele>520.79998779297</ele>
        <time>2022-05-29T13:49:51.811Z</time>
      </trkpt>
      <trkpt lat="45.90361" lon="4.46534">
        <ele>520.79998779297</ele>
        <time>2022-05-29T13:49:58.456Z</time>
      </trkpt>
      <trkpt lat="45.90359" lon="4.46544">
        <ele>520.79998779297</ele>
        <time>2022-05-29T13:50:05.113Z</time>
      </trkpt>
      <trkpt lat="45.90349" lon="4.46558">
        <ele>520.79998779297</ele>
        <time>2022-05-29T13:50:11.792Z</time>
      </trkpt>
      <trkpt lat="45.90342" lon="4.46559">
        <ele>519</ele>
        <time>2022-05-29T13:50:18.484Z</time>
      </trkpt>
      <trkpt lat="45.90322" lon="4.4658">
        <ele>519.79998779297</ele>
        <time>2022-05-29T13:50:25.215Z</time>
      </trkpt>
      <trkpt lat="45.90317" lon="4.46592">
        <ele>519.79998779297</ele>
        <time>2022-05-29T13:50:31.963Z</time>
      </trkpt>
      <trkpt lat="45.90308" lon="4.46606">
        <ele>519.79998779297</ele>
        <time>2022-05-29T13:50:38.732Z</time>
      </trkpt>
      <trkpt lat="45.90307" lon="4.46606">
        <ele>521.40002441406</ele>
        <time>2022-05-29T13:50:45.502Z</time>
      </trkpt>
      <trkpt lat="45.90306" lon="4.46611">
        <ele>521.40002441406</ele>
        <time>2022-05-29T13:50:52.279Z</time>
      </trkpt>
      <trkpt lat="45.90298" lon="4.46627">
        <ele>523</ele>
        <time>2022-05-29T13:50:59.078Z</time>
      </trkpt>
      <trkpt lat="45.90297" lon="4.46634">
        <ele>523.40002441406</ele>
        <time>2022-05-29T13:51:05.886Z</time>
      </trkpt>
      <trkpt lat="45.90293" lon="4.46636">
        <ele>523.59997558594</ele>
        <time>2022-05-29T13:51:12.700Z</time>
      </trkpt>
      <trkpt lat="45.90291" lon="4.46643">
        <ele>523.59997558594</ele>
        <time>2022-05-29T13:51:19.523Z</time>
      </trkpt>
      <trkpt lat="45.90289" lon="4.46644">
        <ele>523.59997558594</ele>
        <time>2022-05-29T13:51:26.350Z</time>
      </trkpt>
      <trkpt lat="45.90285" lon="4.46652">
        <ele>523.59997558594</ele>
        <time>2022-05-29T13:51:33.187Z</time>
      </trkpt>
      <trkpt lat="45.90274" lon="4.46661">
        <ele>523.59997558594</ele>
        <time>2022-05-29T13:51:40.045Z</time>
      </trkpt>
      <trkpt lat="45.90263" lon="4.4668">
        <ele>523.59997558594</ele>
        <time>2022-05-29T13:51:46.931Z</time>
      </trkpt>
      <trkpt lat="45.90256" lon="4.46686">
        <ele>523.59997558594</ele>
        <time>2022-05-29T13:51:53.830Z</time>
      </trkpt>
      <trkpt lat="45.90254" lon="4.4669">
        <ele>528.20001220703</ele>
        <time>2022-05-29T13:52:00.735Z</time>
      </trkpt>
      <trkpt lat="45.90251" lon="4.4669">
        <ele>528.40002441406</ele>
        <time>2022-05-29T13:52:07.645Z</time>
      </trkpt>
      <trkpt lat="45.90247" lon="4.467">
        <ele>528.40002441406</ele>
        <time>2022-05-29T13:52:14.568Z</time>
      </trkpt>
      <trkpt lat="45.90238" lon="4.46706">
        <ele>528.40002441406</ele>
        <time>2022-05-29T13:52:21.507Z</time>
      </trkpt>
      <trkpt lat="45.90233" lon="4.46717">
        <ele>528.40002441406</ele>
        <time>2022-05-29T13:52:28.462Z</time>
      </trkpt>
      <trkpt lat="45.9023" lon="4.46716">
        <ele>528.40002441406</ele>
        <time>2022-05-29T13:52:35.422Z</time>
      </trkpt>
      <trkpt lat="45.90211" lon="4.46731">
        <ele>532.79998779297</ele>
        <time>2022-05-29T13:52:42.416Z</time>
      </trkpt>
      <trkpt lat="45.902" lon="4.46743">
        <ele>534.20001220703</ele>
        <time>2022-05-29T13:52:49.434Z</time>
      </trkpt>
      <trkpt lat="45.90189" lon="4.46749">
        <ele>534.40002441406</ele>
        <time>2022-05-29T13:52:56.470Z</time>
      </trkpt>
      <trkpt lat="45.90186" lon="4.46754">
        <ele>534.59997558594</ele>
        <time>2022-05-29T13:53:03.514Z</time>
      </trkpt>
      <trkpt lat="45.90176" lon="4.46761">
        <ele>534.59997558594</ele>
        <time>2022-05-29T13:53:10.576Z</time>
      </trkpt>
      <trkpt lat="45.90168" lon="4.46772">
        <ele>534.59997558594</ele>
        <time>2022-05-29T13:53:17.657Z</time>
      </trkpt>
      <trkpt lat="45.90164" lon="4.46783">
        <ele>534.59997558594</ele>
        <time>2022-05-29T13:53:24.751Z</time>
      </trkpt>
      <trkpt lat="45.9016" lon="4.46785">
        <ele>534.59997558594</ele>
        <time>2022-05-29T13:53:31.852Z</time>
      </trkpt>
      <trkpt lat="45.90156" lon="4.46785">
        <ele>539</ele>
        <time>2022-05-29T13:53:38.959Z</time>
      </trkpt>
      <trkpt lat="45.90146" lon="4.46803">
        <ele>539</ele>
        <time>2022-05-29T13:53:46.092Z</time>
      </trkpt>
      <trkpt lat="45.90139" lon="4.46805">
        <ele>540.79998779297</ele>
        <time>2022-05-29T13:53:53.237Z</time>
      </trkpt>
      <trkpt lat="45.90128" lon="4.46812">
        <ele>542.40002441406</ele>
        <time>2022-05-29T13:54:00.401Z</time>
      </trkpt>
      <trkpt lat="45.90119" lon="4.4683">
        <ele>544.20001220703</ele>
        <time>2022-05-29T13:54:07.590Z</time>
      </trkpt>
      <trkpt lat="45.90115" lon="4.46833">
        <ele>544.40002441406</ele>
        <time>2022-05-29T13:54:14.787Z</time>
      </trkpt>
      <trkpt lat="45.90111" lon="4.46832">
        <ele>544.40002441406</ele>
        <time>2022-05-29T13:54:21.990Z</time>
      </trkpt>
      <trkpt lat="45.90102" lon="4.46836">
        <ele>544.40002441406</ele>
        <time>2022-05-29T13:54:29.209Z</time>
      </trkpt>
      <trkpt lat="45.90096" lon="4.46845">
        <ele>546.40002441406</ele>
        <time>2022-05-29T13:54:36.442Z</time>
      </trkpt>
      <trkpt lat="45.9009" lon="4.46847">
        <ele>547.20001220703</ele>
        <time>2022-05-29T13:54:43.684Z</time>
      </trkpt>
      <trkpt lat="45.90085" lon="4.46853">
        <ele>547.20001220703</ele>
        <time>2022-05-29T13:54:50.937Z</time>
      </trkpt>
      <trkpt lat="45.90076" lon="4.46865">
        <ele>549.20001220703</ele>
        <time>2022-05-29T13:54:58.210Z</time>
      </trkpt>
      <trkpt lat="45.90074" lon="4.46874">
        <ele>550</ele>
        <time>2022-05-29T13:55:05.493Z</time>
      </trkpt>
      <trkpt lat="45.90069" lon="4.46879">
        <ele>550</ele>
        <time>2022-05-29T13:55:12.786Z</time>
      </trkpt>
      <trkpt lat="45.90068" lon="4.46886">
        <ele>550</ele>
        <time>2022-05-29T13:55:20.088Z</time>
      </trkpt>
      <trkpt lat="45.90064" lon="4.46891">
        <ele>551.20001220703</ele>
        <time>2022-05-29T13:55:27.398Z</time>
      </trkpt>
      <trkpt lat="45.90062" lon="4.46897">
        <ele>551.20001220703</ele>
        <time>2022-05-29T13:55:34.716Z</time>
      </trkpt>
      <trkpt lat="45.90058" lon="4.46902">
        <ele>551.20001220703</ele>
        <time>2022-05-29T13:55:42.043Z</time>
      </trkpt>
      <trkpt lat="45.90048" lon="4.46929">
        <ele>551.20001220703</ele>
        <time>2022-05-29T13:55:49.404Z</time>
      </trkpt>
      <trkpt lat="45.90043" lon="4.4696">
        <ele>551.20001220703</ele>
        <time>2022-05-29T13:55:56.802Z</time>
      </trkpt>
      <trkpt lat="45.90055" lon="4.46962">
        <ele>551.20001220703</ele>
        <time>2022-05-29T13:56:04.220Z</time>
      </trkpt>
      <trkpt lat="45.90041" lon="4.46985">
        <ele>551.20001220703</ele>
        <time>2022-05-29T13:56:11.673Z</time>
      </trkpt>
      <trkpt lat="45.90038" lon="4.47016">
        <ele>559.40002441406</ele>
        <time>2022-05-29T13:56:19.162Z</time>
      </trkpt>
      <trkpt lat="45.9003" lon="4.47048">
        <ele>559.40002441406</ele>
        <time>2022-05-29T13:56:26.689Z</time>
      </trkpt>
      <trkpt lat="45.90028" lon="4.47073">
        <ele>559.40002441406</ele>
        <time>2022-05-29T13:56:34.245Z</time>
      </trkpt>
      <trkpt lat="45.90022" lon="4.47097">
        <ele>559.40002441406</ele>
        <time>2022-05-29T13:56:41.831Z</time>
      </trkpt>
      <trkpt lat="45.9002" lon="4.47102">
        <ele>559.40002441406</ele>
        <time>2022-05-29T13:56:49.423Z</time>
      </trkpt>
      <trkpt lat="45.90016" lon="4.47126">
        <ele>559.40002441406</ele>
        <time>2022-05-29T13:56:57.044Z</time>
      </trkpt>
      <trkpt lat="45.90012" lon="4.47136">
        <ele>559.40002441406</ele>
        <time>2022-05-29T13:57:04.677Z</time>
      </trkpt>
      <trkpt lat="45.90005" lon="4.47165">
        <ele>567.40002441406</ele>
        <time>2022-05-29T13:57:12.345Z</time>
      </trkpt>
      <trkpt lat="45.90003" lon="4.47183">
        <ele>569.79998779297</ele>
        <time>2022-05-29T13:57:20.034Z</time>
      </trkpt>
      <trkpt lat="45.89968" lon="4.47158">
        <ele>565.20001220703</ele>
        <time>2022-05-29T13:57:27.787Z</time>
      </trkpt>
      <trkpt lat="45.8996" lon="4.47154">
        <ele>565.20001220703</ele>
        <time>2022-05-29T13:57:35.553Z</time>
      </trkpt>
      <trkpt lat="45.89936" lon="4.47133">
        <ele>556.20001220703</ele>
        <time>2022-05-29T13:57:43.366Z</time>
      </trkpt>
      <trkpt lat="45.89925" lon="4.47127">
        <ele>554.59997558594</ele>
        <time>2022-05-29T13:57:51.197Z</time>
      </trkpt>
      <trkpt lat="45.89911" lon="4.47111">
        <ele>554.59997558594</ele>
        <time>2022-05-29T13:57:59.059Z</time>
      </trkpt>
      <trkpt lat="45.89902" lon="4.47107">
        <ele>554.59997558594</ele>
        <time>2022-05-29T13:58:06.935Z</time>
      </trkpt>
      <trkpt lat="45.89898" lon="4.47108">
        <ele>554.59997558594</ele>
        <time>2022-05-29T13:58:14.817Z</time>
      </trkpt>
      <trkpt lat="45.89893" lon="4.47102">
        <ele>548.59997558594</ele>
        <time>2022-05-29T13:58:22.710Z</time>
      </trkpt>
      <trkpt lat="45.89889" lon="4.47093">
        <ele>547.79998779297</ele>
        <time>2022-05-29T13:58:30.616Z</time>
      </trkpt>
      <trkpt lat="45.89879" lon="4.47085">
        <ele>547.79998779297</ele>
        <time>2022-05-29T13:58:38.541Z</time>
      </trkpt>
      <trkpt lat="45.8987" lon="4.47074">
        <ele>547.79998779297</ele>
        <time>2022-05-29T13:58:46.485Z</time>
      </trkpt>
      <trkpt lat="45.89865" lon="4.47071">
        <ele>547.79998779297</ele>
        <time>2022-05-29T13:58:54.438Z</time>
      </trkpt>
      <trkpt lat="45.8986" lon="4.47071">
        <ele>543</ele>
        <time>2022-05-29T13:59:02.399Z</time>
      </trkpt>
      <trkpt lat="45.89866" lon="4.47069">
        <ele>543.20001220703</ele>
        <time>2022-05-29T13:59:10.369Z</time>
      </trkpt>
      <trkpt lat="45.89879" lon="4.47083">
        <ele>543.59997558594</ele>
        <time>2022-05-29T13:59:18.367Z</time>
      </trkpt>
      <trkpt lat="45.89889" lon="4.47089">
        <ele>543.59997558594</ele>
        <time>2022-05-29T13:59:26.382Z</time>
      </trkpt>
      <trkpt lat="45.89894" lon="4.4709">
        <ele>543.59997558594</ele>
        <time>2022-05-29T13:59:34.405Z</time>
      </trkpt>
      <trkpt lat="45.89902" lon="4.47098">
        <ele>547.40002441406</ele>
        <time>2022-05-29T13:59:42.444Z</time>
      </trkpt>
      <trkpt lat="45.8991" lon="4.47103">
        <ele>547.40002441406</ele>
        <time>2022-05-29T13:59:50.499Z</time>
      </trkpt>
      <trkpt lat="45.89913" lon="4.47103">
        <ele>549.20001220703</ele>
        <time>2022-05-29T13:59:58.557Z</time>
      </trkpt>
      <trkpt lat="45.89915" lon="4.47108">
        <ele>549.59997558594</ele>
        <time>2022-05-29T14:00:06.622Z</time>
      </trkpt>
      <trkpt lat="45.89923" lon="4.47113">
        <ele>550.79998779297</ele>
        <time>2022-05-29T14:00:14.701Z</time>
      </trkpt>
      <trkpt lat="45.89926" lon="4.47117">
        <ele>551.59997558594</ele>
        <time>2022-05-29T14:00:22.787Z</time>
      </trkpt>
      <trkpt lat="45.8992" lon="4.47115">
        <ele>552.40002441406</ele>
        <time>2022-05-29T14:00:30.882Z</time>
      </trkpt>
      <trkpt lat="45.89918" lon="4.47115">
        <ele>552.40002441406</ele>
        <time>2022-05-29T14:00:38.981Z</time>
      </trkpt>
      <trkpt lat="45.89918" lon="4.47118">
        <ele>553.40002441406</ele>
        <time>2022-05-29T14:00:47.083Z</time>
      </trkpt>
      <trkpt lat="45.89914" lon="4.47119">
        <ele>554</ele>
        <time>2022-05-29T14:00:55.191Z</time>
      </trkpt>
      <trkpt lat="45.89912" lon="4.47118">
        <ele>554.40002441406</ele>
        <time>2022-05-29T14:01:03.303Z</time>
      </trkpt>
      <trkpt lat="45.89918" lon="4.47123">
        <ele>554.40002441406</ele>
        <time>2022-05-29T14:01:11.426Z</time>
      </trkpt>
      <trkpt lat="45.89938" lon="4.47134">
        <ele>554.40002441406</ele>
        <time>2022-05-29T14:01:19.585Z</time>
      </trkpt>
      <trkpt lat="45.89965" lon="4.47158">
        <ele>562.40002441406</ele>
        <time>2022-05-29T14:01:27.795Z</time>
      </trkpt>
      <trkpt lat="45.89993" lon="4.47173">
        <ele>567.40002441406</ele>
        <time>2022-05-29T14:01:36.055Z</time>
      </trkpt>
      <trkpt lat="45.90001" lon="4.47175">
        <ele>568.59997558594</ele>
        <time>2022-05-29T14:01:44.328Z</time>
        <extensions>
          <visugpx:TrkExtension xmlns:visugpx="https://www.visugpx.com/editgpx/">
            <visugpx:node>3</visugpx:node>
            </visugpx:TrkExtension>
        </extensions>
      </trkpt>
    </trkseg>
  </trk>
  <trk>
    <name><![CDATA[parcours MCJ1_2]]></name>
    <extensions>
      <line xmlns="http://www.topografix.com/GPX/gpx_style/0/2">
        <color>0000ff</color>
        <width>4</width>
      </line>
    </extensions>
    <trkseg>
      <trkpt lat="45.90001" lon="4.47175">
        <ele>568.59997558594</ele>
        <time>2022-05-29T14:01:44.328Z</time>
        <extensions>
          <visugpx:TrkExtension xmlns:visugpx="https://www.visugpx.com/editgpx/">
            <visugpx:node>3</visugpx:node>
            </visugpx:TrkExtension>
        </extensions>
      </trkpt>
      <trkpt lat="45.90008" lon="4.47185">
        <ele>570.40002441406</ele>
        <time>2022-05-29T14:01:52.617Z</time>
      </trkpt>
      <trkpt lat="45.90009" lon="4.47194">
        <ele>570.40002441406</ele>
        <time>2022-05-29T14:02:00.916Z</time>
      </trkpt>
      <trkpt lat="45.90013" lon="4.47205">
        <ele>570.40002441406</ele>
        <time>2022-05-29T14:02:09.230Z</time>
      </trkpt>
      <trkpt lat="45.90028" lon="4.47229">
        <ele>576.79998779297</ele>
        <time>2022-05-29T14:02:17.580Z</time>
      </trkpt>
      <trkpt lat="45.90037" lon="4.47256">
        <ele>579</ele>
        <time>2022-05-29T14:02:25.964Z</time>
      </trkpt>
      <trkpt lat="45.90031" lon="4.47254">
        <ele>580.20001220703</ele>
        <time>2022-05-29T14:02:34.358Z</time>
      </trkpt>
      <trkpt lat="45.90035" lon="4.47256">
        <ele>579</ele>
        <time>2022-05-29T14:02:42.760Z</time>
      </trkpt>
      <trkpt lat="45.90003" lon="4.47276">
        <ele>579</ele>
        <time>2022-05-29T14:02:51.218Z</time>
      </trkpt>
      <trkpt lat="45.89986" lon="4.47291">
        <ele>585.20001220703</ele>
        <time>2022-05-29T14:02:59.710Z</time>
      </trkpt>
      <trkpt lat="45.89979" lon="4.473">
        <ele>587</ele>
        <time>2022-05-29T14:03:08.217Z</time>
      </trkpt>
      <trkpt lat="45.8997" lon="4.47307">
        <ele>587</ele>
        <time>2022-05-29T14:03:16.739Z</time>
      </trkpt>
      <trkpt lat="45.89962" lon="4.47317">
        <ele>587</ele>
        <time>2022-05-29T14:03:25.279Z</time>
      </trkpt>
      <trkpt lat="45.89948" lon="4.47343">
        <ele>587</ele>
        <time>2022-05-29T14:03:33.856Z</time>
      </trkpt>
      <trkpt lat="45.89938" lon="4.47365">
        <ele>596.59997558594</ele>
        <time>2022-05-29T14:03:42.464Z</time>
      </trkpt>
      <trkpt lat="45.89936" lon="4.47375">
        <ele>597.40002441406</ele>
        <time>2022-05-29T14:03:51.084Z</time>
      </trkpt>
      <trkpt lat="45.89929" lon="4.47386">
        <ele>599</ele>
        <time>2022-05-29T14:03:59.721Z</time>
      </trkpt>
      <trkpt lat="45.89926" lon="4.47396">
        <ele>599.40002441406</ele>
        <time>2022-05-29T14:04:08.369Z</time>
      </trkpt>
      <trkpt lat="45.89913" lon="4.47417">
        <ele>599.40002441406</ele>
        <time>2022-05-29T14:04:17.050Z</time>
      </trkpt>
      <trkpt lat="45.89907" lon="4.47435">
        <ele>602.20001220703</ele>
        <time>2022-05-29T14:04:25.753Z</time>
      </trkpt>
      <trkpt lat="45.89889" lon="4.47465">
        <ele>602.79998779297</ele>
        <time>2022-05-29T14:04:34.501Z</time>
      </trkpt>
      <trkpt lat="45.89881" lon="4.47489">
        <ele>604.59997558594</ele>
        <time>2022-05-29T14:04:43.280Z</time>
      </trkpt>
      <trkpt lat="45.89854" lon="4.47531">
        <ele>603.59997558594</ele>
        <time>2022-05-29T14:04:52.124Z</time>
      </trkpt>
      <trkpt lat="45.89809" lon="4.47571">
        <ele>603.59997558594</ele>
        <time>2022-05-29T14:05:01.053Z</time>
      </trkpt>
      <trkpt lat="45.89804" lon="4.47578">
        <ele>603.59997558594</ele>
        <time>2022-05-29T14:05:09.994Z</time>
      </trkpt>
      <trkpt lat="45.89794" lon="4.47588">
        <ele>603.59997558594</ele>
        <time>2022-05-29T14:05:18.956Z</time>
      </trkpt>
      <trkpt lat="45.89782" lon="4.47603">
        <ele>603.59997558594</ele>
        <time>2022-05-29T14:05:27.944Z</time>
      </trkpt>
      <trkpt lat="45.89775" lon="4.47609">
        <ele>600.59997558594</ele>
        <time>2022-05-29T14:05:36.945Z</time>
      </trkpt>
      <trkpt lat="45.8977" lon="4.47611">
        <ele>600.59997558594</ele>
        <time>2022-05-29T14:05:45.954Z</time>
      </trkpt>
      <trkpt lat="45.89767" lon="4.4761">
        <ele>600.59997558594</ele>
        <time>2022-05-29T14:05:54.967Z</time>
      </trkpt>
      <trkpt lat="45.89763" lon="4.47615">
        <ele>600.59997558594</ele>
        <time>2022-05-29T14:06:03.990Z</time>
      </trkpt>
      <trkpt lat="45.89755" lon="4.47617">
        <ele>600.59997558594</ele>
        <time>2022-05-29T14:06:13.026Z</time>
      </trkpt>
      <trkpt lat="45.89737" lon="4.47631">
        <ele>598.40002441406</ele>
        <time>2022-05-29T14:06:22.096Z</time>
      </trkpt>
      <trkpt lat="45.89731" lon="4.4764">
        <ele>597.40002441406</ele>
        <time>2022-05-29T14:06:31.179Z</time>
      </trkpt>
      <trkpt lat="45.89726" lon="4.47644">
        <ele>597.40002441406</ele>
        <time>2022-05-29T14:06:40.272Z</time>
      </trkpt>
      <trkpt lat="45.89722" lon="4.47646">
        <ele>596.79998779297</ele>
        <time>2022-05-29T14:06:49.373Z</time>
      </trkpt>
      <trkpt lat="45.89719" lon="4.4765">
        <ele>596.79998779297</ele>
        <time>2022-05-29T14:06:58.479Z</time>
      </trkpt>
      <trkpt lat="45.89703" lon="4.47665">
        <ele>595.20001220703</ele>
        <time>2022-05-29T14:07:07.618Z</time>
      </trkpt>
      <trkpt lat="45.89698" lon="4.47674">
        <ele>594.79998779297</ele>
        <time>2022-05-29T14:07:16.770Z</time>
      </trkpt>
      <trkpt lat="45.8967" lon="4.47707">
        <ele>594.79998779297</ele>
        <time>2022-05-29T14:07:25.980Z</time>
      </trkpt>
      <trkpt lat="45.89637" lon="4.47767">
        <ele>594.79998779297</ele>
        <time>2022-05-29T14:07:35.278Z</time>
      </trkpt>
      <trkpt lat="45.89612" lon="4.47824">
        <ele>584.40002441406</ele>
        <time>2022-05-29T14:07:44.652Z</time>
      </trkpt>
      <trkpt lat="45.89601" lon="4.47844">
        <ele>584.40002441406</ele>
        <time>2022-05-29T14:07:54.056Z</time>
      </trkpt>
      <trkpt lat="45.89567" lon="4.47937">
        <ele>576.79998779297</ele>
        <time>2022-05-29T14:08:03.579Z</time>
      </trkpt>
      <trkpt lat="45.89562" lon="4.47958">
        <ele>575.40002441406</ele>
        <time>2022-05-29T14:08:13.127Z</time>
      </trkpt>
      <trkpt lat="45.89548" lon="4.47986">
        <ele>575.40002441406</ele>
        <time>2022-05-29T14:08:22.715Z</time>
      </trkpt>
      <trkpt lat="45.89538" lon="4.47993">
        <ele>574.79998779297</ele>
        <time>2022-05-29T14:08:32.320Z</time>
      </trkpt>
      <trkpt lat="45.89523" lon="4.48023">
        <ele>575.20001220703</ele>
        <time>2022-05-29T14:08:41.968Z</time>
      </trkpt>
      <trkpt lat="45.895" lon="4.48081">
        <ele>575.20001220703</ele>
        <time>2022-05-29T14:08:51.691Z</time>
      </trkpt>
      <trkpt lat="45.89474" lon="4.48125">
        <ele>574.59997558594</ele>
        <time>2022-05-29T14:09:01.480Z</time>
      </trkpt>
      <trkpt lat="45.89455" lon="4.48148">
        <ele>573.59997558594</ele>
        <time>2022-05-29T14:09:11.311Z</time>
      </trkpt>
      <trkpt lat="45.89449" lon="4.4815">
        <ele>574</ele>
        <time>2022-05-29T14:09:21.151Z</time>
      </trkpt>
      <trkpt lat="45.89432" lon="4.48148">
        <ele>575.59997558594</ele>
        <time>2022-05-29T14:09:31.018Z</time>
      </trkpt>
      <trkpt lat="45.89405" lon="4.48131">
        <ele>575.59997558594</ele>
        <time>2022-05-29T14:09:40.935Z</time>
      </trkpt>
      <trkpt lat="45.89391" lon="4.48116">
        <ele>576.59997558594</ele>
        <time>2022-05-29T14:09:50.879Z</time>
      </trkpt>
      <trkpt lat="45.89388" lon="4.48109">
        <ele>576.20001220703</ele>
        <time>2022-05-29T14:10:00.833Z</time>
      </trkpt>
      <trkpt lat="45.89389" lon="4.48117">
        <ele>574.20001220703</ele>
        <time>2022-05-29T14:10:10.796Z</time>
      </trkpt>
      <trkpt lat="45.89393" lon="4.48119">
        <ele>574.20001220703</ele>
        <time>2022-05-29T14:10:20.766Z</time>
      </trkpt>
      <trkpt lat="45.89396" lon="4.48127">
        <ele>577.20001220703</ele>
        <time>2022-05-29T14:10:30.747Z</time>
      </trkpt>
      <trkpt lat="45.894" lon="4.4813">
        <ele>577.20001220703</ele>
        <time>2022-05-29T14:10:40.734Z</time>
      </trkpt>
      <trkpt lat="45.89402" lon="4.48138">
        <ele>577.20001220703</ele>
        <time>2022-05-29T14:10:50.731Z</time>
      </trkpt>
      <trkpt lat="45.89404" lon="4.48137">
        <ele>577.20001220703</ele>
        <time>2022-05-29T14:11:00.732Z</time>
      </trkpt>
      <trkpt lat="45.89411" lon="4.48141">
        <ele>577.59997558594</ele>
        <time>2022-05-29T14:11:10.745Z</time>
      </trkpt>
      <trkpt lat="45.89433" lon="4.48165">
        <ele>577.59997558594</ele>
        <time>2022-05-29T14:11:20.802Z</time>
      </trkpt>
      <trkpt lat="45.89436" lon="4.48172">
        <ele>577.59997558594</ele>
        <time>2022-05-29T14:11:30.869Z</time>
      </trkpt>
      <trkpt lat="45.89438" lon="4.48176">
        <ele>574.79998779297</ele>
        <time>2022-05-29T14:11:40.941Z</time>
      </trkpt>
      <trkpt lat="45.89437" lon="4.48184">
        <ele>574.40002441406</ele>
        <time>2022-05-29T14:11:51.022Z</time>
      </trkpt>
      <trkpt lat="45.89432" lon="4.48194">
        <ele>574.40002441406</ele>
        <time>2022-05-29T14:12:01.117Z</time>
      </trkpt>
      <trkpt lat="45.89415" lon="4.48209">
        <ele>574.40002441406</ele>
        <time>2022-05-29T14:12:11.246Z</time>
      </trkpt>
      <trkpt lat="45.89403" lon="4.48228">
        <ele>574.40002441406</ele>
        <time>2022-05-29T14:12:21.402Z</time>
      </trkpt>
      <trkpt lat="45.89379" lon="4.48255">
        <ele>574.40002441406</ele>
        <time>2022-05-29T14:12:31.609Z</time>
      </trkpt>
      <trkpt lat="45.89373" lon="4.48257">
        <ele>567.79998779297</ele>
        <time>2022-05-29T14:12:41.825Z</time>
      </trkpt>
      <trkpt lat="45.89341" lon="4.4829">
        <ele>566.20001220703</ele>
        <time>2022-05-29T14:12:52.105Z</time>
      </trkpt>
      <trkpt lat="45.89326" lon="4.48309">
        <ele>566.20001220703</ele>
        <time>2022-05-29T14:13:02.419Z</time>
      </trkpt>
      <trkpt lat="45.89315" lon="4.48318">
        <ele>566.20001220703</ele>
        <time>2022-05-29T14:13:12.754Z</time>
      </trkpt>
      <trkpt lat="45.89306" lon="4.48329">
        <ele>562.59997558594</ele>
        <time>2022-05-29T14:13:23.108Z</time>
      </trkpt>
      <trkpt lat="45.89302" lon="4.48331">
        <ele>562.59997558594</ele>
        <time>2022-05-29T14:13:33.468Z</time>
      </trkpt>
      <trkpt lat="45.89263" lon="4.48379">
        <ele>559.79998779297</ele>
        <time>2022-05-29T14:13:43.912Z</time>
      </trkpt>
      <trkpt lat="45.89245" lon="4.48399">
        <ele>559.79998779297</ele>
        <time>2022-05-29T14:13:54.393Z</time>
      </trkpt>
      <trkpt lat="45.89204" lon="4.48433">
        <ele>553.40002441406</ele>
        <time>2022-05-29T14:14:04.952Z</time>
      </trkpt>
      <trkpt lat="45.89195" lon="4.48443">
        <ele>553.40002441406</ele>
        <time>2022-05-29T14:14:15.529Z</time>
      </trkpt>
      <trkpt lat="45.89184" lon="4.48466">
        <ele>551.59997558594</ele>
        <time>2022-05-29T14:14:26.138Z</time>
      </trkpt>
      <trkpt lat="45.89174" lon="4.48482">
        <ele>551.59997558594</ele>
        <time>2022-05-29T14:14:36.772Z</time>
      </trkpt>
      <trkpt lat="45.89173" lon="4.48491">
        <ele>549.20001220703</ele>
        <time>2022-05-29T14:14:47.416Z</time>
      </trkpt>
      <trkpt lat="45.89168" lon="4.48495">
        <ele>548.59997558594</ele>
        <time>2022-05-29T14:14:58.070Z</time>
      </trkpt>
      <trkpt lat="45.89168" lon="4.48499">
        <ele>548.59997558594</ele>
        <time>2022-05-29T14:15:08.728Z</time>
      </trkpt>
      <trkpt lat="45.89149" lon="4.48523">
        <ele>544.79998779297</ele>
        <time>2022-05-29T14:15:19.426Z</time>
      </trkpt>
      <trkpt lat="45.89141" lon="4.4854">
        <ele>543.79998779297</ele>
        <time>2022-05-29T14:15:30.148Z</time>
      </trkpt>
      <trkpt lat="45.89134" lon="4.48563">
        <ele>543.79998779297</ele>
        <time>2022-05-29T14:15:40.899Z</time>
      </trkpt>
      <trkpt lat="45.89133" lon="4.48574">
        <ele>543.79998779297</ele>
        <time>2022-05-29T14:15:51.662Z</time>
      </trkpt>
      <trkpt lat="45.89123" lon="4.486">
        <ele>543.79998779297</ele>
        <time>2022-05-29T14:16:02.458Z</time>
      </trkpt>
      <trkpt lat="45.89102" lon="4.48624">
        <ele>543.79998779297</ele>
        <time>2022-05-29T14:16:13.299Z</time>
      </trkpt>
      <trkpt lat="45.89093" lon="4.48638">
        <ele>529.59997558594</ele>
        <time>2022-05-29T14:16:24.162Z</time>
      </trkpt>
      <trkpt lat="45.89085" lon="4.48675">
        <ele>524.59997558594</ele>
        <time>2022-05-29T14:16:35.068Z</time>
      </trkpt>
      <trkpt lat="45.89085" lon="4.48693">
        <ele>524.59997558594</ele>
        <time>2022-05-29T14:16:45.995Z</time>
      </trkpt>
      <trkpt lat="45.89081" lon="4.48703">
        <ele>520.59997558594</ele>
        <time>2022-05-29T14:16:56.935Z</time>
      </trkpt>
      <trkpt lat="45.89074" lon="4.48732">
        <ele>517</ele>
        <time>2022-05-29T14:17:07.910Z</time>
      </trkpt>
      <trkpt lat="45.89071" lon="4.48751">
        <ele>513.40002441406</ele>
        <time>2022-05-29T14:17:18.906Z</time>
      </trkpt>
      <trkpt lat="45.89043" lon="4.48886">
        <ele>513.40002441406</ele>
        <time>2022-05-29T14:17:30.063Z</time>
      </trkpt>
      <trkpt lat="45.8904" lon="4.48889">
        <ele>494.39999389648</ele>
        <time>2022-05-29T14:17:41.225Z</time>
      </trkpt>
      <trkpt lat="45.89031" lon="4.4895">
        <ele>491.39999389648</ele>
        <time>2022-05-29T14:17:52.459Z</time>
      </trkpt>
      <trkpt lat="45.89021" lon="4.4899">
        <ele>486.39999389648</ele>
        <time>2022-05-29T14:18:03.741Z</time>
      </trkpt>
      <trkpt lat="45.89021" lon="4.49003">
        <ele>486.39999389648</ele>
        <time>2022-05-29T14:18:15.038Z</time>
      </trkpt>
      <trkpt lat="45.89035" lon="4.49011">
        <ele>486.39999389648</ele>
        <time>2022-05-29T14:18:26.360Z</time>
      </trkpt>
      <trkpt lat="45.89047" lon="4.4902">
        <ele>482.39999389648</ele>
        <time>2022-05-29T14:18:37.704Z</time>
      </trkpt>
      <trkpt lat="45.89053" lon="4.49023">
        <ele>482.20001220703</ele>
        <time>2022-05-29T14:18:49.058Z</time>
      </trkpt>
      <trkpt lat="45.8906" lon="4.49023">
        <ele>481.39999389648</ele>
        <time>2022-05-29T14:19:00.424Z</time>
      </trkpt>
      <trkpt lat="45.89068" lon="4.49026">
        <ele>480.60000610352</ele>
        <time>2022-05-29T14:19:11.804Z</time>
      </trkpt>
      <trkpt lat="45.89086" lon="4.49039">
        <ele>480.20001220703</ele>
        <time>2022-05-29T14:19:23.217Z</time>
      </trkpt>
      <trkpt lat="45.89089" lon="4.4904">
        <ele>480</ele>
        <time>2022-05-29T14:19:34.635Z</time>
      </trkpt>
      <trkpt lat="45.89093" lon="4.49044">
        <ele>480</ele>
        <time>2022-05-29T14:19:46.060Z</time>
      </trkpt>
      <trkpt lat="45.89111" lon="4.49052">
        <ele>479</ele>
        <time>2022-05-29T14:19:57.516Z</time>
      </trkpt>
      <trkpt lat="45.89113" lon="4.49057">
        <ele>478.60000610352</ele>
        <time>2022-05-29T14:20:08.978Z</time>
      </trkpt>
      <trkpt lat="45.89129" lon="4.49068">
        <ele>477.20001220703</ele>
        <time>2022-05-29T14:20:20.469Z</time>
      </trkpt>
      <trkpt lat="45.89135" lon="4.4907">
        <ele>477.20001220703</ele>
        <time>2022-05-29T14:20:31.970Z</time>
      </trkpt>
      <trkpt lat="45.89141" lon="4.49069">
        <ele>475.39999389648</ele>
        <time>2022-05-29T14:20:43.481Z</time>
      </trkpt>
      <trkpt lat="45.89154" lon="4.4907">
        <ele>474</ele>
        <time>2022-05-29T14:20:55.013Z</time>
      </trkpt>
      <trkpt lat="45.8916" lon="4.49074">
        <ele>473.39999389648</ele>
        <time>2022-05-29T14:21:06.557Z</time>
      </trkpt>
      <trkpt lat="45.8916" lon="4.49077">
        <ele>473</ele>
        <time>2022-05-29T14:21:18.104Z</time>
      </trkpt>
      <trkpt lat="45.89169" lon="4.49092">
        <ele>473</ele>
        <time>2022-05-29T14:21:29.673Z</time>
      </trkpt>
      <trkpt lat="45.89196" lon="4.49099">
        <ele>473</ele>
        <time>2022-05-29T14:21:41.287Z</time>
      </trkpt>
      <trkpt lat="45.8922" lon="4.49102">
        <ele>468.79998779297</ele>
        <time>2022-05-29T14:21:52.940Z</time>
      </trkpt>
      <trkpt lat="45.89226" lon="4.49095">
        <ele>468.79998779297</ele>
        <time>2022-05-29T14:22:04.607Z</time>
      </trkpt>
      <trkpt lat="45.89232" lon="4.49092">
        <ele>468.79998779297</ele>
        <time>2022-05-29T14:22:16.283Z</time>
      </trkpt>
      <trkpt lat="45.89234" lon="4.49093">
        <ele>468.79998779297</ele>
        <time>2022-05-29T14:22:27.963Z</time>
      </trkpt>
      <trkpt lat="45.89258" lon="4.49089">
        <ele>469.39999389648</ele>
        <time>2022-05-29T14:22:39.683Z</time>
      </trkpt>
      <trkpt lat="45.89269" lon="4.49092">
        <ele>469.60000610352</ele>
        <time>2022-05-29T14:22:51.421Z</time>
      </trkpt>
      <trkpt lat="45.89278" lon="4.49091">
        <ele>469.60000610352</ele>
        <time>2022-05-29T14:23:03.173Z</time>
      </trkpt>
      <trkpt lat="45.89282" lon="4.49093">
        <ele>469.60000610352</ele>
        <time>2022-05-29T14:23:14.933Z</time>
      </trkpt>
      <trkpt lat="45.89284" lon="4.49088">
        <ele>469.60000610352</ele>
        <time>2022-05-29T14:23:26.699Z</time>
      </trkpt>
      <trkpt lat="45.89289" lon="4.49086">
        <ele>469.60000610352</ele>
        <time>2022-05-29T14:23:38.474Z</time>
      </trkpt>
      <trkpt lat="45.89292" lon="4.49092">
        <ele>471.20001220703</ele>
        <time>2022-05-29T14:23:50.257Z</time>
      </trkpt>
      <trkpt lat="45.89301" lon="4.49102">
        <ele>471.79998779297</ele>
        <time>2022-05-29T14:24:02.058Z</time>
        <extensions>
          <visugpx:TrkExtension xmlns:visugpx="https://www.visugpx.com/editgpx/">
            <visugpx:node>1</visugpx:node>
            </visugpx:TrkExtension>
        </extensions>
      </trkpt>
      <trkpt lat="45.89296" lon="4.49072">
        <ele>470.3</ele>
      </trkpt>
      <trkpt lat="45.89286" lon="4.49084">
        <ele>469.6</ele>
      </trkpt>
      <trkpt lat="45.89284" lon="4.49085">
        <ele>469.4</ele>
      </trkpt>
      <trkpt lat="45.89277" lon="4.4909">
        <ele>469</ele>
      </trkpt>
      <trkpt lat="45.89269" lon="4.49097">
        <ele>468.8</ele>
      </trkpt>
      <trkpt lat="45.89258" lon="4.49093">
        <ele>468.8</ele>
      </trkpt>
      <trkpt lat="45.89224" lon="4.49094">
        <ele>468.3</ele>
      </trkpt>
      <trkpt lat="45.89215" lon="4.49095">
        <ele>468.3</ele>
      </trkpt>
      <trkpt lat="45.89203" lon="4.49093">
        <ele>468.8</ele>
      </trkpt>
      <trkpt lat="45.89189" lon="4.49094">
        <ele>469.1</ele>
      </trkpt>
      <trkpt lat="45.89168" lon="4.49101">
        <ele>469.6</ele>
      </trkpt>
      <trkpt lat="45.89164" lon="4.4909">
        <ele>470.7</ele>
      </trkpt>
      <trkpt lat="45.89161" lon="4.49082">
        <ele>471.5</ele>
      </trkpt>
      <trkpt lat="45.89156" lon="4.49076">
        <ele>472.5</ele>
      </trkpt>
      <trkpt lat="45.89151" lon="4.49076">
        <ele>472.8</ele>
      </trkpt>
      <trkpt lat="45.89142" lon="4.49077">
        <ele>473.3</ele>
      </trkpt>
      <trkpt lat="45.89131" lon="4.49076">
        <ele>473.9</ele>
      </trkpt>
      <trkpt lat="45.89108" lon="4.49059">
        <ele>476.8</ele>
      </trkpt>
      <trkpt lat="45.89073" lon="4.49034">
        <ele>479.9</ele>
      </trkpt>
      <trkpt lat="45.89061" lon="4.49027">
        <ele>480.9</ele>
      </trkpt>
      <trkpt lat="45.89052" lon="4.49023">
        <ele>481.5</ele>
      </trkpt>
      <trkpt lat="45.89038" lon="4.49017">
        <ele>482.2</ele>
      </trkpt>
      <trkpt lat="45.89031" lon="4.49015">
        <ele>482.4</ele>
      </trkpt>
      <trkpt lat="45.89022" lon="4.49016">
        <ele>482.2</ele>
      </trkpt>
      <trkpt lat="45.89012" lon="4.49017">
        <ele>481.9</ele>
      </trkpt>
      <trkpt lat="45.89" lon="4.49018">
        <ele>481.7</ele>
      </trkpt>
      <trkpt lat="45.88992" lon="4.49016">
        <ele>481</ele>
      </trkpt>
      <trkpt lat="45.88982" lon="4.49012">
        <ele>480.2</ele>
      </trkpt>
      <trkpt lat="45.88972" lon="4.49006">
        <ele>479.5</ele>
      </trkpt>
      <trkpt lat="45.88965" lon="4.49">
        <ele>479.2</ele>
      </trkpt>
      <trkpt lat="45.88957" lon="4.48992">
        <ele>478.8</ele>
      </trkpt>
      <trkpt lat="45.88949" lon="4.48982">
        <ele>478.2</ele>
      </trkpt>
      <trkpt lat="45.88943" lon="4.48971">
        <ele>477.8</ele>
      </trkpt>
      <trkpt lat="45.88938" lon="4.48959">
        <ele>477.3</ele>
      </trkpt>
      <trkpt lat="45.88934" lon="4.48949">
        <ele>477</ele>
      </trkpt>
      <trkpt lat="45.88929" lon="4.48929">
        <ele>476.5</ele>
      </trkpt>
      <trkpt lat="45.88926" lon="4.48918">
        <ele>476</ele>
      </trkpt>
      <trkpt lat="45.88924" lon="4.48891">
        <ele>475.6</ele>
      </trkpt>
      <trkpt lat="45.88923" lon="4.4887">
        <ele>475.4</ele>
      </trkpt>
      <trkpt lat="45.88922" lon="4.48859">
        <ele>475.2</ele>
      </trkpt>
      <trkpt lat="45.8892" lon="4.48851">
        <ele>475.1</ele>
      </trkpt>
      <trkpt lat="45.88916" lon="4.48839">
        <ele>474.7</ele>
      </trkpt>
      <trkpt lat="45.88911" lon="4.48824">
        <ele>474.7</ele>
      </trkpt>
      <trkpt lat="45.88883" lon="4.48772">
        <ele>475.2</ele>
      </trkpt>
      <trkpt lat="45.88869" lon="4.4875">
        <ele>476.1</ele>
      </trkpt>
      <trkpt lat="45.88857" lon="4.48732">
        <ele>477.1</ele>
      </trkpt>
      <trkpt lat="45.88831" lon="4.48699">
        <ele>477.2</ele>
      </trkpt>
      <trkpt lat="45.88809" lon="4.48673">
        <ele>476.9</ele>
      </trkpt>
      <trkpt lat="45.88793" lon="4.4865">
        <ele>476.1</ele>
      </trkpt>
      <trkpt lat="45.8877" lon="4.48618">
        <ele>474.6</ele>
      </trkpt>
      <trkpt lat="45.88758" lon="4.48598">
        <ele>474</ele>
      </trkpt>
      <trkpt lat="45.88754" lon="4.48586">
        <ele>474.4</ele>
      </trkpt>
      <trkpt lat="45.88752" lon="4.48577">
        <ele>474.6</ele>
      </trkpt>
      <trkpt lat="45.88752" lon="4.48567">
        <ele>474.9</ele>
      </trkpt>
      <trkpt lat="45.88752" lon="4.48555">
        <ele>475.3</ele>
      </trkpt>
      <trkpt lat="45.88755" lon="4.48536">
        <ele>475.2</ele>
      </trkpt>
      <trkpt lat="45.88759" lon="4.4852">
        <ele>475.1</ele>
      </trkpt>
      <trkpt lat="45.88761" lon="4.48513">
        <ele>474.9</ele>
      </trkpt>
      <trkpt lat="45.88762" lon="4.48508">
        <ele>474.7</ele>
      </trkpt>
      <trkpt lat="45.88769" lon="4.48486">
        <ele>474.8</ele>
      </trkpt>
      <trkpt lat="45.88773" lon="4.48469">
        <ele>474.9</ele>
      </trkpt>
      <trkpt lat="45.88773" lon="4.48456">
        <ele>474.4</ele>
      </trkpt>
      <trkpt lat="45.88771" lon="4.48439">
        <ele>473.7</ele>
      </trkpt>
      <trkpt lat="45.88764" lon="4.48404">
        <ele>473.5</ele>
      </trkpt>
      <trkpt lat="45.88756" lon="4.4837">
        <ele>473.7</ele>
      </trkpt>
      <trkpt lat="45.88737" lon="4.48291">
        <ele>474.7</ele>
      </trkpt>
      <trkpt lat="45.88733" lon="4.4827">
        <ele>475.4</ele>
      </trkpt>
      <trkpt lat="45.8873" lon="4.4823">
        <ele>476.1</ele>
      </trkpt>
      <trkpt lat="45.88731" lon="4.48221">
        <ele>476.2</ele>
      </trkpt>
      <trkpt lat="45.88731" lon="4.48215">
        <ele>476.1</ele>
      </trkpt>
      <trkpt lat="45.88734" lon="4.48198">
        <ele>476.2</ele>
      </trkpt>
      <trkpt lat="45.88741" lon="4.48172">
        <ele>475.8</ele>
      </trkpt>
      <trkpt lat="45.88751" lon="4.48107">
        <ele>469.7</ele>
      </trkpt>
      <trkpt lat="45.88757" lon="4.48068">
        <ele>466.6</ele>
      </trkpt>
      <trkpt lat="45.88763" lon="4.48039">
        <ele>464.9</ele>
      </trkpt>
      <trkpt lat="45.88767" lon="4.48018">
        <ele>463.4</ele>
      </trkpt>
      <trkpt lat="45.88783" lon="4.47971">
        <ele>461.4</ele>
      </trkpt>
      <trkpt lat="45.88785" lon="4.47965">
        <ele>461</ele>
      </trkpt>
      <trkpt lat="45.88793" lon="4.47946">
        <ele>459.8</ele>
      </trkpt>
      <trkpt lat="45.88799" lon="4.47932">
        <ele>459.5</ele>
      </trkpt>
      <trkpt lat="45.88803" lon="4.47919">
        <ele>459.6</ele>
      </trkpt>
      <trkpt lat="45.88804" lon="4.47905">
        <ele>459.7</ele>
      </trkpt>
      <trkpt lat="45.88804" lon="4.47891">
        <ele>459.7</ele>
      </trkpt>
      <trkpt lat="45.88803" lon="4.47882">
        <ele>460</ele>
      </trkpt>
      <trkpt lat="45.88797" lon="4.47852">
        <ele>462.3</ele>
      </trkpt>
      <trkpt lat="45.88795" lon="4.47841">
        <ele>463.5</ele>
      </trkpt>
      <trkpt lat="45.88795" lon="4.4783">
        <ele>464.8</ele>
      </trkpt>
      <trkpt lat="45.88797" lon="4.47803">
        <ele>467.1</ele>
      </trkpt>
      <trkpt lat="45.88799" lon="4.47788">
        <ele>467.6</ele>
      </trkpt>
      <trkpt lat="45.88808" lon="4.47736">
        <ele>470.6</ele>
      </trkpt>
      <trkpt lat="45.88809" lon="4.47726">
        <ele>471</ele>
      </trkpt>
      <trkpt lat="45.8881" lon="4.47718">
        <ele>471</ele>
      </trkpt>
      <trkpt lat="45.88812" lon="4.47711">
        <ele>470.7</ele>
      </trkpt>
      <trkpt lat="45.88815" lon="4.47704">
        <ele>470.5</ele>
      </trkpt>
      <trkpt lat="45.88824" lon="4.47692">
        <ele>469.8</ele>
      </trkpt>
      <trkpt lat="45.88839" lon="4.4768">
        <ele>468.6</ele>
      </trkpt>
      <trkpt lat="45.88841" lon="4.47679">
        <ele>468.6</ele>
      </trkpt>
      <trkpt lat="45.88842" lon="4.47678">
        <ele>468.5</ele>
      </trkpt>
      <trkpt lat="45.8889" lon="4.47642">
        <ele>464.6</ele>
      </trkpt>
      <trkpt lat="45.88905" lon="4.47631">
        <ele>464</ele>
      </trkpt>
      <trkpt lat="45.88907" lon="4.4763">
        <ele>463.9</ele>
      </trkpt>
      <trkpt lat="45.8895" lon="4.47602">
        <ele>461.9</ele>
      </trkpt>
      <trkpt lat="45.88959" lon="4.47598">
        <ele>462</ele>
      </trkpt>
      <trkpt lat="45.88966" lon="4.47594">
        <ele>461.8</ele>
      </trkpt>
      <trkpt lat="45.89017" lon="4.47561">
        <ele>457.8</ele>
      </trkpt>
      <trkpt lat="45.89025" lon="4.47554">
        <ele>457.7</ele>
      </trkpt>
      <trkpt lat="45.8903" lon="4.47544">
        <ele>457.8</ele>
      </trkpt>
      <trkpt lat="45.89032" lon="4.47537">
        <ele>457.9</ele>
      </trkpt>
      <trkpt lat="45.89033" lon="4.47531">
        <ele>458</ele>
      </trkpt>
      <trkpt lat="45.89031" lon="4.47522">
        <ele>458.3</ele>
      </trkpt>
      <trkpt lat="45.89027" lon="4.47511">
        <ele>458.6</ele>
      </trkpt>
      <trkpt lat="45.89018" lon="4.47491">
        <ele>458.8</ele>
      </trkpt>
      <trkpt lat="45.89002" lon="4.47454">
        <ele>460.8</ele>
      </trkpt>
      <trkpt lat="45.88998" lon="4.47443">
        <ele>461.5</ele>
      </trkpt>
      <trkpt lat="45.88995" lon="4.47431">
        <ele>461.5</ele>
      </trkpt>
      <trkpt lat="45.88993" lon="4.4742">
        <ele>461.7</ele>
      </trkpt>
      <trkpt lat="45.88991" lon="4.47396">
        <ele>462.7</ele>
      </trkpt>
      <trkpt lat="45.88986" lon="4.4737">
        <ele>462.5</ele>
      </trkpt>
      <trkpt lat="45.88985" lon="4.47367">
        <ele>462.4</ele>
      </trkpt>
      <trkpt lat="45.88981" lon="4.47355">
        <ele>462.6</ele>
      </trkpt>
      <trkpt lat="45.8896" lon="4.47317">
        <ele>465.4</ele>
      </trkpt>
      <trkpt lat="45.88952" lon="4.473">
        <ele>467</ele>
      </trkpt>
      <trkpt lat="45.88944" lon="4.47282">
        <ele>468.1</ele>
      </trkpt>
      <trkpt lat="45.88938" lon="4.47265">
        <ele>468.8</ele>
      </trkpt>
      <trkpt lat="45.88934" lon="4.47248">
        <ele>469.8</ele>
      </trkpt>
      <trkpt lat="45.88928" lon="4.47188">
        <ele>470.2</ele>
      </trkpt>
      <trkpt lat="45.88922" lon="4.47133">
        <ele>470.4</ele>
      </trkpt>
      <trkpt lat="45.88918" lon="4.4708">
        <ele>469.5</ele>
      </trkpt>
      <trkpt lat="45.88916" lon="4.47048">
        <ele>469.9</ele>
      </trkpt>
      <trkpt lat="45.88916" lon="4.47028">
        <ele>469.9</ele>
      </trkpt>
      <trkpt lat="45.88917" lon="4.47011">
        <ele>468.8</ele>
      </trkpt>
      <trkpt lat="45.88918" lon="4.47002">
        <ele>468.3</ele>
      </trkpt>
      <trkpt lat="45.88925" lon="4.46981">
        <ele>468.8</ele>
      </trkpt>
      <trkpt lat="45.88933" lon="4.46966">
        <ele>468.1</ele>
      </trkpt>
      <trkpt lat="45.88939" lon="4.46958">
        <ele>467.1</ele>
      </trkpt>
      <trkpt lat="45.88946" lon="4.46948">
        <ele>465.8</ele>
      </trkpt>
      <trkpt lat="45.88967" lon="4.46927">
        <ele>463.6</ele>
      </trkpt>
      <trkpt lat="45.88975" lon="4.46921">
        <ele>462.9</ele>
      </trkpt>
      <trkpt lat="45.8899" lon="4.46911">
        <ele>461.5</ele>
      </trkpt>
      <trkpt lat="45.88998" lon="4.46907">
        <ele>460.9</ele>
      </trkpt>
      <trkpt lat="45.89008" lon="4.46901">
        <ele>459.9</ele>
      </trkpt>
      <trkpt lat="45.89013" lon="4.46896">
        <ele>459</ele>
      </trkpt>
      <trkpt lat="45.8903" lon="4.46884">
        <ele>456.8</ele>
      </trkpt>
      <trkpt lat="45.89088" lon="4.46846">
        <ele>448.9</ele>
      </trkpt>
      <trkpt lat="45.89098" lon="4.46836">
        <ele>447.1</ele>
      </trkpt>
      <trkpt lat="45.89116" lon="4.46823">
        <ele>444.6</ele>
      </trkpt>
      <trkpt lat="45.89162" lon="4.46777">
        <ele>435.6</ele>
      </trkpt>
      <trkpt lat="45.89186" lon="4.46758">
        <ele>432</ele>
      </trkpt>
      <trkpt lat="45.89199" lon="4.46751">
        <ele>431.2</ele>
      </trkpt>
      <trkpt lat="45.89226" lon="4.46735">
        <ele>427.8</ele>
      </trkpt>
      <trkpt lat="45.8925" lon="4.46723">
        <ele>426.1</ele>
      </trkpt>
      <trkpt lat="45.89267" lon="4.46715">
        <ele>424.5</ele>
      </trkpt>
      <trkpt lat="45.89298" lon="4.46706">
        <ele>422.7</ele>
      </trkpt>
      <trkpt lat="45.89302" lon="4.46704">
        <ele>422.6</ele>
      </trkpt>
      <trkpt lat="45.89305" lon="4.46702">
        <ele>422.5</ele>
      </trkpt>
      <trkpt lat="45.89307" lon="4.467">
        <ele>422.6</ele>
      </trkpt>
      <trkpt lat="45.89313" lon="4.4669">
        <ele>423.1</ele>
      </trkpt>
      <trkpt lat="45.89323" lon="4.4667">
        <ele>423.7</ele>
      </trkpt>
      <trkpt lat="45.89334" lon="4.46649">
        <ele>423.8</ele>
      </trkpt>
      <trkpt lat="45.89363" lon="4.46607">
        <ele>423.8</ele>
      </trkpt>
      <trkpt lat="45.89372" lon="4.46597">
        <ele>424.2</ele>
      </trkpt>
      <trkpt lat="45.8938" lon="4.46583">
        <ele>424.4</ele>
      </trkpt>
      <trkpt lat="45.89392" lon="4.46577">
        <ele>426.2</ele>
      </trkpt>
      <trkpt lat="45.89404" lon="4.46564">
        <ele>426.7</ele>
      </trkpt>
      <trkpt lat="45.8942" lon="4.46552">
        <ele>427.3</ele>
      </trkpt>
      <trkpt lat="45.89469" lon="4.46523">
        <ele>431.2</ele>
      </trkpt>
      <trkpt lat="45.89476" lon="4.46521">
        <ele>432.3</ele>
      </trkpt>
      <trkpt lat="45.8949" lon="4.46519">
        <ele>434.8</ele>
      </trkpt>
      <trkpt lat="45.89497" lon="4.46514">
        <ele>435.5</ele>
      </trkpt>
      <trkpt lat="45.89506" lon="4.46503">
        <ele>435.5</ele>
      </trkpt>
      <trkpt lat="45.89536" lon="4.4648">
        <ele>438.9</ele>
      </trkpt>
      <trkpt lat="45.89554" lon="4.46469">
        <ele>440.7</ele>
      </trkpt>
      <trkpt lat="45.89591" lon="4.46452">
        <ele>443.7</ele>
      </trkpt>
      <trkpt lat="45.8961" lon="4.46447">
        <ele>445.2</ele>
      </trkpt>
      <trkpt lat="45.89613" lon="4.46446">
        <ele>445.4</ele>
      </trkpt>
      <trkpt lat="45.89616" lon="4.46448">
        <ele>445.9</ele>
      </trkpt>
      <trkpt lat="45.89618" lon="4.46445">
        <ele>445.6</ele>
      </trkpt>
      <trkpt lat="45.89625" lon="4.46432">
        <ele>445.6</ele>
      </trkpt>
      <trkpt lat="45.89627" lon="4.46426">
        <ele>445.5</ele>
      </trkpt>
      <trkpt lat="45.89628" lon="4.4642">
        <ele>445.3</ele>
      </trkpt>
      <trkpt lat="45.89626" lon="4.46399">
        <ele>447</ele>
      </trkpt>
      <trkpt lat="45.89627" lon="4.46397">
        <ele>447.3</ele>
      </trkpt>
      <trkpt lat="45.89619" lon="4.46391">
        <ele>447.3</ele>
      </trkpt>
      <trkpt lat="45.89603" lon="4.46366">
        <ele>451.9</ele>
      </trkpt>
      <trkpt lat="45.89586" lon="4.46362">
        <ele>452.8</ele>
      </trkpt>
      <trkpt lat="45.89577" lon="4.46357">
        <ele>453.9</ele>
      </trkpt>
      <trkpt lat="45.89573" lon="4.46348">
        <ele>455.7</ele>
      </trkpt>
      <trkpt lat="45.89567" lon="4.46334">
        <ele>458.3</ele>
      </trkpt>
      <trkpt lat="45.89562" lon="4.46324">
        <ele>460.2</ele>
      </trkpt>
      <trkpt lat="45.89556" lon="4.46313">
        <ele>462.4</ele>
      </trkpt>
      <trkpt lat="45.89548" lon="4.46305">
        <ele>464.4</ele>
      </trkpt>
      <trkpt lat="45.89539" lon="4.46299">
        <ele>466.2</ele>
      </trkpt>
      <trkpt lat="45.89577" lon="4.46262">
        <ele>476.3</ele>
      </trkpt>
      <trkpt lat="45.89585" lon="4.46252">
        <ele>479.6</ele>
      </trkpt>
      <trkpt lat="45.89623" lon="4.46211">
        <ele>496.1</ele>
      </trkpt>
      <trkpt lat="45.89648" lon="4.46186">
        <ele>505.4</ele>
      </trkpt>
      <trkpt lat="45.89663" lon="4.46177">
        <ele>509.6</ele>
      </trkpt>
      <trkpt lat="45.89676" lon="4.46172">
        <ele>512.4</ele>
      </trkpt>
      <trkpt lat="45.89688" lon="4.46166">
        <ele>515.5</ele>
      </trkpt>
      <trkpt lat="45.89698" lon="4.46158">
        <ele>519.6</ele>
      </trkpt>
      <trkpt lat="45.89731" lon="4.46135">
        <ele>531.6</ele>
      </trkpt>
      <trkpt lat="45.89751" lon="4.46124">
        <ele>538</ele>
      </trkpt>
      <trkpt lat="45.89769" lon="4.46113">
        <ele>544.1</ele>
      </trkpt>
      <trkpt lat="45.89776" lon="4.46113">
        <ele>545.1</ele>
      </trkpt>
      <trkpt lat="45.89844" lon="4.46145">
        <ele>545.6</ele>
      </trkpt>
      <trkpt lat="45.8986" lon="4.4616">
        <ele>543</ele>
      </trkpt>
      <trkpt lat="45.8988" lon="4.46176">
        <ele>540.5</ele>
      </trkpt>
      <trkpt lat="45.89889" lon="4.46184">
        <ele>538.8</ele>
      </trkpt>
      <trkpt lat="45.89904" lon="4.46191">
        <ele>537.9</ele>
      </trkpt>
      <trkpt lat="45.89917" lon="4.46198">
        <ele>536.9</ele>
      </trkpt>
      <trkpt lat="45.89928" lon="4.46206">
        <ele>535.7</ele>
      </trkpt>
      <trkpt lat="45.89937" lon="4.46216">
        <ele>533.4</ele>
      </trkpt>
      <trkpt lat="45.89945" lon="4.46227">
        <ele>530.8</ele>
      </trkpt>
      <trkpt lat="45.89948" lon="4.46236">
        <ele>529.2</ele>
      </trkpt>
      <trkpt lat="45.89962" lon="4.46242">
        <ele>532.3</ele>
      </trkpt>
      <trkpt lat="45.89974" lon="4.46252">
        <ele>534.3</ele>
      </trkpt>
      <trkpt lat="45.89985" lon="4.46263">
        <ele>536.7</ele>
      </trkpt>
      <trkpt lat="45.8999" lon="4.46271">
        <ele>537.3</ele>
      </trkpt>
      <trkpt lat="45.89995" lon="4.46283">
        <ele>537.3</ele>
        <extensions>
          <visugpx:TrkExtension xmlns:visugpx="https://www.visugpx.com/editgpx/">
            <visugpx:node>2</visugpx:node>
            </visugpx:TrkExtension>
        </extensions>
      </trkpt>
    </trkseg>
  </trk>
</gpx>